Home > Products > Valid Products > TAF

000
FTUS44 KOUN 271908 AAA
TAFPNC
TAF AMD
KPNC 271908Z 2719/2818 04008KT P6SM SCT120
     FM272300 14008KT P6SM BKN150=



000
FTUS44 KOUN 271908 AAA
TAFPNC
TAF AMD
KPNC 271908Z 2719/2818 04008KT P6SM SCT120
     FM272300 14008KT P6SM BKN150=



000
FTUS44 KOUN 271908 AAA
TAFHBR
TAF AMD
KHBR 271908Z 2719/2818 07008KT P6SM SCT100
     FM272300 15010KT P6SM SCT250
     FM281000 22007KT P6SM SCT250=



000
FTUS44 KOUN 271908 AAA
TAFHBR
TAF AMD
KHBR 271908Z 2719/2818 07008KT P6SM SCT100
     FM272300 15010KT P6SM SCT250
     FM281000 22007KT P6SM SCT250=



000
FTUS44 KOUN 271737
TAFLAW
TAF
KLAW 271737Z 2718/2818 36012KT P6SM FEW120
     FM272100 08007KT P6SM SCT250
     FM280700 13007KT P6SM SCT150=



000
FTUS44 KOUN 271737
TAFOUN
TAF
KOUN 271737Z 2718/2818 03010KT P6SM BKN023 OVC030
     FM280300 14006KT P6SM FEW250
     FM280900 18011KT P6SM BKN150=



000
FTUS44 KOUN 271737
TAFHBR
TAF
KHBR 271737Z 2718/2818 05013G18KT P6SM SCT100
     FM272300 15010KT P6SM SCT250
     FM281000 22007KT P6SM SCT250=



000
FTUS44 KOUN 271737
TAFSPS
TAF
KSPS 271737Z 2718/2818 04016KT P6SM FEW120 SCT250
     FM272300 13008KT P6SM SCT250
     FM280900 14007KT P6SM SCT200=



000
FTUS44 KOUN 271737
TAFLAW
TAF
KLAW 271737Z 2718/2818 36012KT P6SM FEW120
     FM272100 08007KT P6SM SCT250
     FM280700 13007KT P6SM SCT150=



000
FTUS44 KOUN 271737
TAFOKC
TAF
KOKC 271737Z 2718/2818 03011KT P6SM OVC020
     FM280200 14006KT P6SM FEW250
     FM280900 19010KT P6SM BKN150=



000
FTUS44 KOUN 271737
TAFHBR
TAF
KHBR 271737Z 2718/2818 05013G18KT P6SM SCT100
     FM272300 15010KT P6SM SCT250
     FM281000 22007KT P6SM SCT250=



000
FTUS44 KOUN 271737
TAFSPS
TAF
KSPS 271737Z 2718/2818 04016KT P6SM FEW120 SCT250
     FM272300 13008KT P6SM SCT250
     FM280900 14007KT P6SM SCT200=



000
FTUS44 KOUN 271737
TAFWWR
TAF
KWWR 271737Z 2718/2818 03006KT P6SM SCT100
     FM272300 17012KT P6SM SCT250
     FM281500 36008KT P6SM SKC=



000
FTUS44 KOUN 271737
TAFWWR
TAF
KWWR 271737Z 2718/2818 03006KT P6SM SCT100
     FM272300 17012KT P6SM SCT250
     FM281500 36008KT P6SM SKC=



000
FTUS44 KOUN 271737
TAFGAG
TAF
KGAG 271737Z 2718/2818 05008KT P6SM BKN100
     FM272300 18012KT P6SM SCT250
     FM281500 36007KT P6SM SKC=



000
FTUS44 KOUN 271737
TAFPNC
TAF
KPNC 271737Z 2718/2818 03010G18KT P6SM SCT120
     FM272300 14008KT P6SM BKN150=



000
FTUS44 KOUN 271737
TAFWWR
TAF
KWWR 271737Z 2718/2818 03006KT P6SM SCT100
     FM272300 17012KT P6SM SCT250
     FM281500 36008KT P6SM SKC=



000
FTUS44 KOUN 271737
TAFWWR
TAF
KWWR 271737Z 2718/2818 03006KT P6SM SCT100
     FM272300 17012KT P6SM SCT250
     FM281500 36008KT P6SM SKC=



000
FTUS44 KOUN 271737
TAFSPS
TAF
KSPS 271737Z 2718/2818 04016KT P6SM FEW120 SCT250
     FM272300 13008KT P6SM SCT250
     FM280900 14007KT P6SM SCT200=



000
FTUS44 KOUN 271737
TAFGAG
TAF
KGAG 271737Z 2718/2818 05008KT P6SM BKN100
     FM272300 18012KT P6SM SCT250
     FM281500 36007KT P6SM SKC=



000
FTUS44 KOUN 271737
TAFGAG
TAF
KGAG 271737Z 2718/2818 05008KT P6SM BKN100
     FM272300 18012KT P6SM SCT250
     FM281500 36007KT P6SM SKC=



000
FTUS44 KOUN 271737
TAFOUN
TAF
KOUN 271737Z 2718/2818 03010KT P6SM BKN023 OVC030
     FM280300 14006KT P6SM FEW250
     FM280900 18011KT P6SM BKN150=



000
FTUS44 KOUN 271737
TAFHBR
TAF
KHBR 271737Z 2718/2818 05013G18KT P6SM SCT100
     FM272300 15010KT P6SM SCT250
     FM281000 22007KT P6SM SCT250=



000
FTUS44 KOUN 271737
TAFSPS
TAF
KSPS 271737Z 2718/2818 04016KT P6SM FEW120 SCT250
     FM272300 13008KT P6SM SCT250
     FM280900 14007KT P6SM SCT200=



000
FTUS44 KOUN 271737
TAFOUN
TAF
KOUN 271737Z 2718/2818 03010KT P6SM BKN023 OVC030
     FM280300 14006KT P6SM FEW250
     FM280900 18011KT P6SM BKN150=



000
FTUS44 KOUN 271737
TAFLAW
TAF
KLAW 271737Z 2718/2818 36012KT P6SM FEW120
     FM272100 08007KT P6SM SCT250
     FM280700 13007KT P6SM SCT150=



000
FTUS44 KOUN 271737
TAFOKC
TAF
KOKC 271737Z 2718/2818 03011KT P6SM OVC020
     FM280200 14006KT P6SM FEW250
     FM280900 19010KT P6SM BKN150=



000
FTUS44 KOUN 271737
TAFOKC
TAF
KOKC 271737Z 2718/2818 03011KT P6SM OVC020
     FM280200 14006KT P6SM FEW250
     FM280900 19010KT P6SM BKN150=



000
FTUS44 KOUN 271737
TAFPNC
TAF
KPNC 271737Z 2718/2818 03010G18KT P6SM SCT120
     FM272300 14008KT P6SM BKN150=



000
FTUS44 KOUN 271737
TAFLAW
TAF
KLAW 271737Z 2718/2818 36012KT P6SM FEW120
     FM272100 08007KT P6SM SCT250
     FM280700 13007KT P6SM SCT150=



000
FTUS44 KOUN 271737
TAFOUN
TAF
KOUN 271737Z 2718/2818 03010KT P6SM BKN023 OVC030
     FM280300 14006KT P6SM FEW250
     FM280900 18011KT P6SM BKN150=



000
FTUS44 KOUN 271737
TAFHBR
TAF
KHBR 271737Z 2718/2818 05013G18KT P6SM SCT100
     FM272300 15010KT P6SM SCT250
     FM281000 22007KT P6SM SCT250=



000
FTUS44 KOUN 271737
TAFPNC
TAF
KPNC 271737Z 2718/2818 03010G18KT P6SM SCT120
     FM272300 14008KT P6SM BKN150=



000
FTUS44 KOUN 271737
TAFOKC
TAF
KOKC 271737Z 2718/2818 03011KT P6SM OVC020
     FM280200 14006KT P6SM FEW250
     FM280900 19010KT P6SM BKN150=



000
FTUS44 KOUN 271737
TAFGAG
TAF
KGAG 271737Z 2718/2818 05008KT P6SM BKN100
     FM272300 18012KT P6SM SCT250
     FM281500 36007KT P6SM SKC=



000
FTUS44 KOUN 271614 AAB
TAFOUN
TAF AMD
KOUN 271614Z 2716/2812 01012G16KT P6SM BKN018 OVC100
     FM272100 05010KT P6SM SCT100 BKN250
     FM280300 14006KT P6SM FEW250
     FM280900 18011KT P6SM BKN150=



000
FTUS44 KOUN 271614 AAB
TAFOUN
TAF AMD
KOUN 271614Z 2716/2812 01012G16KT P6SM BKN018 OVC100
     FM272100 05010KT P6SM SCT100 BKN250
     FM280300 14006KT P6SM FEW250
     FM280900 18011KT P6SM BKN150=



000
FTUS44 KOUN 271614 AAB
TAFOUN
TAF AMD
KOUN 271614Z 2716/2812 01012G16KT P6SM BKN018 OVC100
     FM272100 05010KT P6SM SCT100 BKN250
     FM280300 14006KT P6SM FEW250
     FM280900 18011KT P6SM BKN150=



000
FTUS44 KOUN 271613 AAA
TAFOKC
TAF AMD
KOKC 271613Z 2716/2812 35012G16KT P6SM BKN016 OVC100
     FM272100 05010KT P6SM SCT100 SCT250
     FM280300 14006KT P6SM FEW250
     FM280900 18011KT P6SM BKN150=



000
FTUS44 KOUN 271613 AAA
TAFOKC
TAF AMD
KOKC 271613Z 2716/2812 35012G16KT P6SM BKN016 OVC100
     FM272100 05010KT P6SM SCT100 SCT250
     FM280300 14006KT P6SM FEW250
     FM280900 18011KT P6SM BKN150=



000
FTUS44 KOUN 271613 AAA
TAFOKC
TAF AMD
KOKC 271613Z 2716/2812 35012G16KT P6SM BKN016 OVC100
     FM272100 05010KT P6SM SCT100 SCT250
     FM280300 14006KT P6SM FEW250
     FM280900 18011KT P6SM BKN150=



000
FTUS44 KOUN 271613 AAA
TAFOKC
TAF AMD
KOKC 271613Z 2716/2812 35012G16KT P6SM BKN016 OVC100
     FM272100 05010KT P6SM SCT100 SCT250
     FM280300 14006KT P6SM FEW250
     FM280900 18011KT P6SM BKN150=



000
FTUS44 KOUN 271438 AAA
TAFGAG
TAF AMD
KGAG 271438Z 2715/2812 02012G16KT P6SM OVC010
     FM271700 05011KT P6SM SCT100 BKN250
     FM272300 17012KT P6SM SCT250=



000
FTUS44 KOUN 271438 AAA
TAFGAG
TAF AMD
KGAG 271438Z 2715/2812 02012G16KT P6SM OVC010
     FM271700 05011KT P6SM SCT100 BKN250
     FM272300 17012KT P6SM SCT250=



000
FTUS44 KOUN 271437 AAA
TAFWWR
TAF AMD
KWWR 271437Z 2715/2812 03010G15KT P6SM OVC010
     FM271700 05011KT P6SM SCT100 BKN250
     FM272300 17012KT P6SM SCT250=



000
FTUS44 KOUN 271437 AAA
TAFWWR
TAF AMD
KWWR 271437Z 2715/2812 03010G15KT P6SM OVC010
     FM271700 05011KT P6SM SCT100 BKN250
     FM272300 17012KT P6SM SCT250=



000
FTUS44 KOUN 271437 AAA
TAFWWR
TAF AMD
KWWR 271437Z 2715/2812 03010G15KT P6SM OVC010
     FM271700 05011KT P6SM SCT100 BKN250
     FM272300 17012KT P6SM SCT250=



000
FTUS44 KOUN 271437 AAA
TAFWWR
TAF AMD
KWWR 271437Z 2715/2812 03010G15KT P6SM OVC010
     FM271700 05011KT P6SM SCT100 BKN250
     FM272300 17012KT P6SM SCT250=



000
FTUS44 KOUN 271121
TAFGAG
TAF
KGAG 271121Z 2712/2812 02011KT P6SM SCT015 BKN100
     FM271500 05011KT P6SM SCT100 BKN250
     FM272300 17012KT P6SM SCT250=



000
FTUS44 KOUN 271121
TAFHBR
TAF
KHBR 271121Z 2712/2812 03014G23KT P6SM SCT100 BKN250
     FM280100 14010KT P6SM SCT250=



000
FTUS44 KOUN 271121
TAFWWR
TAF
KWWR 271121Z 2712/2812 02011KT P6SM SCT015 BKN100
     FM271300 05011KT P6SM SCT100 BKN250
     FM272300 17012KT P6SM SCT250=



000
FTUS44 KOUN 271121
TAFLAW
TAF
KLAW 271121Z 2712/2812 02014G23KT P6SM SCT100 BKN250
     FM272100 08007KT P6SM SCT250
     FM280700 13007KT P6SM SCT150=



000
FTUS44 KOUN 271121
TAFPNC
TAF
KPNC 271121Z 2712/2812 01014G21KT P6SM BKN015 BKN090
     FM271500 01013G20KT P6SM OVC025
     FM271800 04010KT P6SM SCT100 BKN250
     FM272300 14008KT P6SM BKN150=



000
FTUS44 KOUN 271121
TAFSPS
TAF
KSPS 271121Z 2712/2812 31011KT P6SM FEW100
     FM271400 02014G23KT P6SM SCT100 SCT250
     FM272300 10008KT P6SM SCT250
     FM280800 14007KT P6SM BKN200=



000
FTUS44 KOUN 271121
TAFGAG
TAF
KGAG 271121Z 2712/2812 02011KT P6SM SCT015 BKN100
     FM271500 05011KT P6SM SCT100 BKN250
     FM272300 17012KT P6SM SCT250=



000
FTUS44 KOUN 271121
TAFOUN
TAF
KOUN 271121Z 2712/2812 35015G24KT P6SM SCT020 BKN100
     FM272100 05010KT P6SM SCT100 BKN250
     FM280300 14006KT P6SM FEW250
     FM280900 18011KT P6SM BKN150=



000
FTUS44 KOUN 271121
TAFPNC
TAF
KPNC 271121Z 2712/2812 01014G21KT P6SM BKN015 BKN090
     FM271500 01013G20KT P6SM OVC025
     FM271800 04010KT P6SM SCT100 BKN250
     FM272300 14008KT P6SM BKN150=



000
FTUS44 KOUN 271121
TAFLAW
TAF
KLAW 271121Z 2712/2812 02014G23KT P6SM SCT100 BKN250
     FM272100 08007KT P6SM SCT250
     FM280700 13007KT P6SM SCT150=



000
FTUS44 KOUN 271121
TAFOUN
TAF
KOUN 271121Z 2712/2812 35015G24KT P6SM SCT020 BKN100
     FM272100 05010KT P6SM SCT100 BKN250
     FM280300 14006KT P6SM FEW250
     FM280900 18011KT P6SM BKN150=



000
FTUS44 KOUN 271121
TAFHBR
TAF
KHBR 271121Z 2712/2812 03014G23KT P6SM SCT100 BKN250
     FM280100 14010KT P6SM SCT250=



000
FTUS44 KOUN 271121
TAFSPS
TAF
KSPS 271121Z 2712/2812 31011KT P6SM FEW100
     FM271400 02014G23KT P6SM SCT100 SCT250
     FM272300 10008KT P6SM SCT250
     FM280800 14007KT P6SM BKN200=



000
FTUS44 KOUN 271121
TAFWWR
TAF
KWWR 271121Z 2712/2812 02011KT P6SM SCT015 BKN100
     FM271300 05011KT P6SM SCT100 BKN250
     FM272300 17012KT P6SM SCT250=



000
FTUS44 KOUN 271121
TAFOKC
TAF
KOKC 271121Z 2712/2812 35015G24KT P6SM SCT020 BKN100
     FM272100 05010KT P6SM SCT100 SCT250
     FM280300 14006KT P6SM FEW250
     FM280900 18011KT P6SM BKN150=



000
FTUS44 KOUN 270931 AAA
TAFPNC
TAF AMD
KPNC 270931Z 2710/2806 01013KT P6SM FEW012 BKN080
     FM271100 01014G21KT P6SM BKN012
     FM271500 01013G20KT P6SM FEW021 OVC025
     FM271800 04010KT P6SM SCT100 BKN250
     FM272300 14008KT P6SM SCT250=



000
FTUS44 KOUN 270931 AAA
TAFPNC
TAF AMD
KPNC 270931Z 2710/2806 01013KT P6SM FEW012 BKN080
     FM271100 01014G21KT P6SM BKN012
     FM271500 01013G20KT P6SM FEW021 OVC025
     FM271800 04010KT P6SM SCT100 BKN250
     FM272300 14008KT P6SM SCT250=



000
FTUS44 KOUN 270522
TAFOKC
TAF
KOKC 270522Z 2706/2806 22007KT P6SM BKN150
     FM271100 35015G24KT P6SM BKN100
     FM272100 05010KT P6SM SCT100 BKN250=



000
FTUS44 KOUN 270522
TAFOUN
TAF
KOUN 270522Z 2706/2806 22007KT P6SM BKN150
     FM271100 35015G24KT P6SM BKN100
     FM272100 05010KT P6SM SCT100 BKN250=



000
FTUS44 KOUN 270522
TAFPNC
TAF
KPNC 270522Z 2706/2806 24007KT P6SM SCT100
     FM271000 01014G22KT P6SM BKN080
     FM271800 04010KT P6SM SCT100 BKN250
     FM272300 14008KT P6SM SCT250=



000
FTUS44 KOUN 270522
TAFGAG
TAF
KGAG 270522Z 2706/2806 33011KT P6SM BKN100
     FM271500 05011KT P6SM SCT100 BKN250
     FM272300 17012KT P6SM SCT250=



000
FTUS44 KOUN 270522
TAFHBR
TAF
KHBR 270522Z 2706/2806 24011KT P6SM FEW100
     FM271200 03014G23KT P6SM SCT100 BKN250
     FM272100 14010KT P6SM SCT250=



000
FTUS44 KOUN 270522
TAFWWR
TAF
KWWR 270522Z 2706/2806 33011KT P6SM BKN100
     FM271300 05011KT P6SM SCT100 BKN250
     FM272300 17012KT P6SM SCT250=



000
FTUS44 KOUN 270522
TAFSPS
TAF
KSPS 270522Z 2706/2806 24011KT P6SM FEW100
     FM271400 02014G23KT P6SM SCT100 SCT250
     FM272100 10008KT P6SM SCT250=



000
FTUS44 KOUN 270522
TAFLAW
TAF
KLAW 270522Z 2706/2806 24011KT P6SM FEW100
     FM271300 02014G23KT P6SM SCT100 BKN250
     FM272100 08007KT P6SM SCT250=



000
FTUS44 KOUN 270522
TAFWWR
TAF
KWWR 270522Z 2706/2806 33011KT P6SM BKN100
     FM271300 05011KT P6SM SCT100 BKN250
     FM272300 17012KT P6SM SCT250=



000
FTUS44 KOUN 270522
TAFSPS
TAF
KSPS 270522Z 2706/2806 24011KT P6SM FEW100
     FM271400 02014G23KT P6SM SCT100 SCT250
     FM272100 10008KT P6SM SCT250=



000
FTUS44 KOUN 270522
TAFHBR
TAF
KHBR 270522Z 2706/2806 24011KT P6SM FEW100
     FM271200 03014G23KT P6SM SCT100 BKN250
     FM272100 14010KT P6SM SCT250=



000
FTUS44 KOUN 270522
TAFPNC
TAF
KPNC 270522Z 2706/2806 24007KT P6SM SCT100
     FM271000 01014G22KT P6SM BKN080
     FM271800 04010KT P6SM SCT100 BKN250
     FM272300 14008KT P6SM SCT250=



000
FTUS44 KOUN 270522
TAFLAW
TAF
KLAW 270522Z 2706/2806 24011KT P6SM FEW100
     FM271300 02014G23KT P6SM SCT100 BKN250
     FM272100 08007KT P6SM SCT250=



000
FTUS44 KOUN 270522
TAFOKC
TAF
KOKC 270522Z 2706/2806 22007KT P6SM BKN150
     FM271100 35015G24KT P6SM BKN100
     FM272100 05010KT P6SM SCT100 BKN250=



000
FTUS44 KOUN 270522
TAFGAG
TAF
KGAG 270522Z 2706/2806 33011KT P6SM BKN100
     FM271500 05011KT P6SM SCT100 BKN250
     FM272300 17012KT P6SM SCT250=



000
FTUS44 KOUN 270522
TAFOUN
TAF
KOUN 270522Z 2706/2806 22007KT P6SM BKN150
     FM271100 35015G24KT P6SM BKN100
     FM272100 05010KT P6SM SCT100 BKN250=



000
FTUS44 KOUN 270522
TAFPNC
TAF
KPNC 270522Z 2706/2806 24007KT P6SM SCT100
     FM271000 01014G22KT P6SM BKN080
     FM271800 04010KT P6SM SCT100 BKN250
     FM272300 14008KT P6SM SCT250=



000
FTUS44 KOUN 270522
TAFHBR
TAF
KHBR 270522Z 2706/2806 24011KT P6SM FEW100
     FM271200 03014G23KT P6SM SCT100 BKN250
     FM272100 14010KT P6SM SCT250=



000
FTUS44 KOUN 270522
TAFGAG
TAF
KGAG 270522Z 2706/2806 33011KT P6SM BKN100
     FM271500 05011KT P6SM SCT100 BKN250
     FM272300 17012KT P6SM SCT250=



000
FTUS44 KOUN 270522
TAFOUN
TAF
KOUN 270522Z 2706/2806 22007KT P6SM BKN150
     FM271100 35015G24KT P6SM BKN100
     FM272100 05010KT P6SM SCT100 BKN250=



000
FTUS44 KOUN 270522
TAFWWR
TAF
KWWR 270522Z 2706/2806 33011KT P6SM BKN100
     FM271300 05011KT P6SM SCT100 BKN250
     FM272300 17012KT P6SM SCT250=



000
FTUS44 KOUN 270522
TAFLAW
TAF
KLAW 270522Z 2706/2806 24011KT P6SM FEW100
     FM271300 02014G23KT P6SM SCT100 BKN250
     FM272100 08007KT P6SM SCT250=



000
FTUS44 KOUN 270522
TAFSPS
TAF
KSPS 270522Z 2706/2806 24011KT P6SM FEW100
     FM271400 02014G23KT P6SM SCT100 SCT250
     FM272100 10008KT P6SM SCT250=



000
FTUS44 KOUN 270522
TAFGAG
TAF
KGAG 270522Z 2706/2806 33011KT P6SM BKN100
     FM271500 05011KT P6SM SCT100 BKN250
     FM272300 17012KT P6SM SCT250=



000
FTUS44 KOUN 270522
TAFHBR
TAF
KHBR 270522Z 2706/2806 24011KT P6SM FEW100
     FM271200 03014G23KT P6SM SCT100 BKN250
     FM272100 14010KT P6SM SCT250=



000
FTUS44 KOUN 270522
TAFOKC
TAF
KOKC 270522Z 2706/2806 22007KT P6SM BKN150
     FM271100 35015G24KT P6SM BKN100
     FM272100 05010KT P6SM SCT100 BKN250=



000
FTUS44 KOUN 270522
TAFPNC
TAF
KPNC 270522Z 2706/2806 24007KT P6SM SCT100
     FM271000 01014G22KT P6SM BKN080
     FM271800 04010KT P6SM SCT100 BKN250
     FM272300 14008KT P6SM SCT250=



000
FTUS44 KOUN 270522
TAFOUN
TAF
KOUN 270522Z 2706/2806 22007KT P6SM BKN150
     FM271100 35015G24KT P6SM BKN100
     FM272100 05010KT P6SM SCT100 BKN250=



000
FTUS44 KOUN 270522
TAFOKC
TAF
KOKC 270522Z 2706/2806 22007KT P6SM BKN150
     FM271100 35015G24KT P6SM BKN100
     FM272100 05010KT P6SM SCT100 BKN250=



000
FTUS44 KOUN 270522
TAFSPS
TAF
KSPS 270522Z 2706/2806 24011KT P6SM FEW100
     FM271400 02014G23KT P6SM SCT100 SCT250
     FM272100 10008KT P6SM SCT250=



000
FTUS44 KOUN 270522
TAFWWR
TAF
KWWR 270522Z 2706/2806 33011KT P6SM BKN100
     FM271300 05011KT P6SM SCT100 BKN250
     FM272300 17012KT P6SM SCT250=



000
FTUS44 KOUN 270522
TAFLAW
TAF
KLAW 270522Z 2706/2806 24011KT P6SM FEW100
     FM271300 02014G23KT P6SM SCT100 BKN250
     FM272100 08007KT P6SM SCT250=



000
FTUS44 KOUN 262320
TAFPNC
TAF
KPNC 262320Z 2700/2724 28007KT P6SM SCT100
     FM270900 01014G22KT P6SM BKN100
     FM271700 04010KT P6SM SCT100 BKN250=



000
FTUS44 KOUN 262320
TAFGAG
TAF
KGAG 262320Z 2700/2724 29011KT P6SM BKN100
     FM271300 05011KT P6SM SCT100 BKN250=



000
FTUS44 KOUN 262320
TAFGAG
TAF
KGAG 262320Z 2700/2724 29011KT P6SM BKN100
     FM271300 05011KT P6SM SCT100 BKN250=



000
FTUS44 KOUN 262320
TAFOKC
TAF
KOKC 262320Z 2700/2724 29010KT P6SM SCT150
     FM271000 35015G24KT P6SM BKN100
     FM271900 02012KT P6SM SCT100 BKN250=



000
FTUS44 KOUN 262320
TAFHBR
TAF
KHBR 262320Z 2700/2724 26008KT P6SM SCT100
     FM271000 02014G24KT P6SM BKN100
     FM271900 04010KT P6SM SCT250=



000
FTUS44 KOUN 262320
TAFOKC
TAF
KOKC 262320Z 2700/2724 29010KT P6SM SCT150
     FM271000 35015G24KT P6SM BKN100
     FM271900 02012KT P6SM SCT100 BKN250=



000
FTUS44 KOUN 262320
TAFHBR
TAF
KHBR 262320Z 2700/2724 26008KT P6SM SCT100
     FM271000 02014G24KT P6SM BKN100
     FM271900 04010KT P6SM SCT250=



000
FTUS44 KOUN 262320
TAFSPS
TAF
KSPS 262320Z 2700/2724 26007KT P6SM SCT100
     FM271200 01014G24KT P6SM SCT100 BKN250
     FM272000 04010KT P6SM SCT250=



000
FTUS44 KOUN 262320
TAFLAW
TAF
KLAW 262320Z 2700/2724 VRB03KT P6SM SCT100
     FM271100 01014G24KT P6SM SCT100 BKN250
     FM271900 04010KT P6SM SCT250=



000
FTUS44 KOUN 262320
TAFWWR
TAF
KWWR 262320Z 2700/2724 29011KT P6SM BKN100
     FM271300 05011KT P6SM SCT100 BKN250=



000
FTUS44 KOUN 262320
TAFOUN
TAF
KOUN 262320Z 2700/2724 29009KT P6SM SCT150
     FM271000 35015G24KT P6SM BKN100
     FM272000 02012KT P6SM SCT100 BKN250=



000
FTUS44 KOUN 262320
TAFSPS
TAF
KSPS 262320Z 2700/2724 26007KT P6SM SCT100
     FM271200 01014G24KT P6SM SCT100 BKN250
     FM272000 04010KT P6SM SCT250=



000
FTUS44 KOUN 262320
TAFPNC
TAF
KPNC 262320Z 2700/2724 28007KT P6SM SCT100
     FM270900 01014G22KT P6SM BKN100
     FM271700 04010KT P6SM SCT100 BKN250=



000
FTUS44 KOUN 262320
TAFSPS
TAF
KSPS 262320Z 2700/2724 26007KT P6SM SCT100
     FM271200 01014G24KT P6SM SCT100 BKN250
     FM272000 04010KT P6SM SCT250=



000
FTUS44 KOUN 262320
TAFLAW
TAF
KLAW 262320Z 2700/2724 VRB03KT P6SM SCT100
     FM271100 01014G24KT P6SM SCT100 BKN250
     FM271900 04010KT P6SM SCT250=



000
FTUS44 KOUN 262320
TAFGAG
TAF
KGAG 262320Z 2700/2724 29011KT P6SM BKN100
     FM271300 05011KT P6SM SCT100 BKN250=



000
FTUS44 KOUN 262320
TAFWWR
TAF
KWWR 262320Z 2700/2724 29011KT P6SM BKN100
     FM271300 05011KT P6SM SCT100 BKN250=



000
FTUS44 KOUN 262320
TAFWWR
TAF
KWWR 262320Z 2700/2724 29011KT P6SM BKN100
     FM271300 05011KT P6SM SCT100 BKN250=



000
FTUS44 KOUN 262320
TAFOUN
TAF
KOUN 262320Z 2700/2724 29009KT P6SM SCT150
     FM271000 35015G24KT P6SM BKN100
     FM272000 02012KT P6SM SCT100 BKN250=



000
FTUS44 KOUN 262320
TAFHBR
TAF
KHBR 262320Z 2700/2724 26008KT P6SM SCT100
     FM271000 02014G24KT P6SM BKN100
     FM271900 04010KT P6SM SCT250=



000
FTUS44 KOUN 262320
TAFWWR
TAF
KWWR 262320Z 2700/2724 29011KT P6SM BKN100
     FM271300 05011KT P6SM SCT100 BKN250=



000
FTUS44 KOUN 262320
TAFLAW
TAF
KLAW 262320Z 2700/2724 VRB03KT P6SM SCT100
     FM271100 01014G24KT P6SM SCT100 BKN250
     FM271900 04010KT P6SM SCT250=



000
FTUS44 KOUN 262320
TAFOUN
TAF
KOUN 262320Z 2700/2724 29009KT P6SM SCT150
     FM271000 35015G24KT P6SM BKN100
     FM272000 02012KT P6SM SCT100 BKN250=



000
FTUS44 KOUN 262320
TAFOKC
TAF
KOKC 262320Z 2700/2724 29010KT P6SM SCT150
     FM271000 35015G24KT P6SM BKN100
     FM271900 02012KT P6SM SCT100 BKN250=



000
FTUS44 KOUN 262320
TAFPNC
TAF
KPNC 262320Z 2700/2724 28007KT P6SM SCT100
     FM270900 01014G22KT P6SM BKN100
     FM271700 04010KT P6SM SCT100 BKN250=



000
FTUS44 KOUN 262320
TAFOUN
TAF
KOUN 262320Z 2700/2724 29009KT P6SM SCT150
     FM271000 35015G24KT P6SM BKN100
     FM272000 02012KT P6SM SCT100 BKN250=



000
FTUS44 KOUN 262320
TAFLAW
TAF
KLAW 262320Z 2700/2724 VRB03KT P6SM SCT100
     FM271100 01014G24KT P6SM SCT100 BKN250
     FM271900 04010KT P6SM SCT250=



000
FTUS44 KOUN 262320
TAFPNC
TAF
KPNC 262320Z 2700/2724 28007KT P6SM SCT100
     FM270900 01014G22KT P6SM BKN100
     FM271700 04010KT P6SM SCT100 BKN250=



000
FTUS44 KOUN 262320
TAFSPS
TAF
KSPS 262320Z 2700/2724 26007KT P6SM SCT100
     FM271200 01014G24KT P6SM SCT100 BKN250
     FM272000 04010KT P6SM SCT250=



000
FTUS44 KOUN 262320
TAFOKC
TAF
KOKC 262320Z 2700/2724 29010KT P6SM SCT150
     FM271000 35015G24KT P6SM BKN100
     FM271900 02012KT P6SM SCT100 BKN250=



000
FTUS44 KOUN 262320
TAFHBR
TAF
KHBR 262320Z 2700/2724 26008KT P6SM SCT100
     FM271000 02014G24KT P6SM BKN100
     FM271900 04010KT P6SM SCT250=



000
FTUS44 KOUN 262320
TAFGAG
TAF
KGAG 262320Z 2700/2724 29011KT P6SM BKN100
     FM271300 05011KT P6SM SCT100 BKN250=



000
FTUS44 KOUN 261736
TAFOKC
TAF
KOKC 261736Z 2618/2718 36015G21KT P6SM SKC
     FM262200 26006KT P6SM SCT250
     FM271200 35011KT P6SM SCT120=



000
FTUS44 KOUN 261736
TAFGAG
TAF
KGAG 261736Z 2618/2718 01009KT P6SM SKC
     FM271200 36007KT P6SM BKN120=



000
FTUS44 KOUN 261736
TAFSPS
TAF
KSPS 261736Z 2618/2718 02016KT P6SM SKC
     FM262000 34011KT P6SM SKC
     FM271100 34009KT P6SM SCT250=



000
FTUS44 KOUN 261736
TAFHBR
TAF
KHBR 261736Z 2618/2718 36014KT P6SM SKC
     FM262200 31008KT P6SM SKC
     FM271200 36011KT P6SM SCT250=



000
FTUS44 KOUN 261736
TAFOUN
TAF
KOUN 261736Z 2618/2718 35015G19KT P6SM SKC
     FM262200 25006KT P6SM SCT250
     FM271200 35012KT P6SM SCT120=



000
FTUS44 KOUN 261736
TAFPNC
TAF
KPNC 261736Z 2618/2718 35011G19KT P6SM SKC
     FM261900 33008KT P6SM SKC
     FM270000 16004KT P6SM SKC=



000
FTUS44 KOUN 261736
TAFWWR
TAF
KWWR 261736Z 2618/2718 32005KT P6SM SKC
     FM271100 36007KT P6SM BKN120=



000
FTUS44 KOUN 261736
TAFLAW
TAF
KLAW 261736Z 2618/2718 01020G26KT P6SM SKC
     FM262000 36009KT P6SM SKC
     FM271100 36011KT P6SM SCT250=



000
FTUS44 KOUN 261736
TAFOKC
TAF
KOKC 261736Z 2618/2718 36015G21KT P6SM SKC
     FM262200 26006KT P6SM SCT250
     FM271200 35011KT P6SM SCT120=



000
FTUS44 KOUN 261736
TAFGAG
TAF
KGAG 261736Z 2618/2718 01009KT P6SM SKC
     FM271200 36007KT P6SM BKN120=



000
FTUS44 KOUN 261736
TAFPNC
TAF
KPNC 261736Z 2618/2718 35011G19KT P6SM SKC
     FM261900 33008KT P6SM SKC
     FM270000 16004KT P6SM SKC=



000
FTUS44 KOUN 261736
TAFOUN
TAF
KOUN 261736Z 2618/2718 35015G19KT P6SM SKC
     FM262200 25006KT P6SM SCT250
     FM271200 35012KT P6SM SCT120=



000
FTUS44 KOUN 261736
TAFHBR
TAF
KHBR 261736Z 2618/2718 36014KT P6SM SKC
     FM262200 31008KT P6SM SKC
     FM271200 36011KT P6SM SCT250=



000
FTUS44 KOUN 261736
TAFSPS
TAF
KSPS 261736Z 2618/2718 02016KT P6SM SKC
     FM262000 34011KT P6SM SKC
     FM271100 34009KT P6SM SCT250=



000
FTUS44 KOUN 261736
TAFLAW
TAF
KLAW 261736Z 2618/2718 01020G26KT P6SM SKC
     FM262000 36009KT P6SM SKC
     FM271100 36011KT P6SM SCT250=



000
FTUS44 KOUN 261736
TAFWWR
TAF
KWWR 261736Z 2618/2718 32005KT P6SM SKC
     FM271100 36007KT P6SM BKN120=



000
FTUS44 KOUN 261736
TAFGAG
TAF
KGAG 261736Z 2618/2718 01009KT P6SM SKC
     FM271200 36007KT P6SM BKN120=



000
FTUS44 KOUN 261736
TAFOKC
TAF
KOKC 261736Z 2618/2718 36015G21KT P6SM SKC
     FM262200 26006KT P6SM SCT250
     FM271200 35011KT P6SM SCT120=



000
FTUS44 KOUN 261736
TAFWWR
TAF
KWWR 261736Z 2618/2718 32005KT P6SM SKC
     FM271100 36007KT P6SM BKN120=



000
FTUS44 KOUN 261736
TAFHBR
TAF
KHBR 261736Z 2618/2718 36014KT P6SM SKC
     FM262200 31008KT P6SM SKC
     FM271200 36011KT P6SM SCT250=



000
FTUS44 KOUN 261736
TAFGAG
TAF
KGAG 261736Z 2618/2718 01009KT P6SM SKC
     FM271200 36007KT P6SM BKN120=



000
FTUS44 KOUN 261736
TAFOKC
TAF
KOKC 261736Z 2618/2718 36015G21KT P6SM SKC
     FM262200 26006KT P6SM SCT250
     FM271200 35011KT P6SM SCT120=



000
FTUS44 KOUN 261736
TAFWWR
TAF
KWWR 261736Z 2618/2718 32005KT P6SM SKC
     FM271100 36007KT P6SM BKN120=



000
FTUS44 KOUN 261736
TAFHBR
TAF
KHBR 261736Z 2618/2718 36014KT P6SM SKC
     FM262200 31008KT P6SM SKC
     FM271200 36011KT P6SM SCT250=



000
FTUS44 KOUN 261736
TAFSPS
TAF
KSPS 261736Z 2618/2718 02016KT P6SM SKC
     FM262000 34011KT P6SM SKC
     FM271100 34009KT P6SM SCT250=



000
FTUS44 KOUN 261736
TAFOUN
TAF
KOUN 261736Z 2618/2718 35015G19KT P6SM SKC
     FM262200 25006KT P6SM SCT250
     FM271200 35012KT P6SM SCT120=



000
FTUS44 KOUN 261736
TAFSPS
TAF
KSPS 261736Z 2618/2718 02016KT P6SM SKC
     FM262000 34011KT P6SM SKC
     FM271100 34009KT P6SM SCT250=



000
FTUS44 KOUN 261736
TAFPNC
TAF
KPNC 261736Z 2618/2718 35011G19KT P6SM SKC
     FM261900 33008KT P6SM SKC
     FM270000 16004KT P6SM SKC=



000
FTUS44 KOUN 261736
TAFLAW
TAF
KLAW 261736Z 2618/2718 01020G26KT P6SM SKC
     FM262000 36009KT P6SM SKC
     FM271100 36011KT P6SM SCT250=



000
FTUS44 KOUN 261736
TAFPNC
TAF
KPNC 261736Z 2618/2718 35011G19KT P6SM SKC
     FM261900 33008KT P6SM SKC
     FM270000 16004KT P6SM SKC=



000
FTUS44 KOUN 261736
TAFOUN
TAF
KOUN 261736Z 2618/2718 35015G19KT P6SM SKC
     FM262200 25006KT P6SM SCT250
     FM271200 35012KT P6SM SCT120=



000
FTUS44 KOUN 261736
TAFLAW
TAF
KLAW 261736Z 2618/2718 01020G26KT P6SM SKC
     FM262000 36009KT P6SM SKC
     FM271100 36011KT P6SM SCT250=



000
FTUS44 KOUN 261129 CCA
TAFPNC
TAF COR
KPNC 261129Z 2612/2712 35013KT P6SM SKC
     FM261500 36013G19KT P6SM SKC
     FM261900 33008KT P6SM SKC
     FM270000 16004KT P6SM SKC=



000
FTUS44 KOUN 261129 CCA
TAFPNC
TAF COR
KPNC 261129Z 2612/2712 35013KT P6SM SKC
     FM261500 36013G19KT P6SM SKC
     FM261900 33008KT P6SM SKC
     FM270000 16004KT P6SM SKC=



000
FTUS44 KOUN 261129 CCA
TAFPNC
TAF COR
KPNC 261129Z 2612/2712 35013KT P6SM SKC
     FM261500 36013G19KT P6SM SKC
     FM261900 33008KT P6SM SKC
     FM270000 16004KT P6SM SKC=



000
FTUS44 KOUN 261129 CCA
TAFPNC
TAF COR
KPNC 261129Z 2612/2712 35013KT P6SM SKC
     FM261500 36013G19KT P6SM SKC
     FM261900 33008KT P6SM SKC
     FM270000 16004KT P6SM SKC=



000
FTUS44 KOUN 261120
TAFPNC
TAF
KPNC 261120Z 2612/2712 35013KT P6SM OVC110
     FM261500 36013G19KT P6SM SKC
     FM261900 33008KT P6SM SKC
     FM270000 16004KT P6SM SKC=



000
FTUS44 KOUN 261120
TAFHBR
TAF
KHBR 261120Z 2612/2712 02011KT P6SM SCT050
     FM261400 01012G19KT P6SM SKC
     FM262200 34008KT P6SM SKC=



000
FTUS44 KOUN 261120
TAFWWR
TAF
KWWR 261120Z 2612/2712 30009KT P6SM SKC=



000
FTUS44 KOUN 261120
TAFOKC
TAF
KOKC 261120Z 2612/2712 36023G29KT P6SM SCT018 BKN050
     FM261500 36020G28KT P6SM SKC
     FM262100 35011KT P6SM SKC=



000
FTUS44 KOUN 261120
TAFPNC
TAF
KPNC 261120Z 2612/2712 35013KT P6SM OVC110
     FM261500 36013G19KT P6SM SKC
     FM261900 33008KT P6SM SKC
     FM270000 16004KT P6SM SKC=



000
FTUS44 KOUN 261120
TAFLAW
TAF
KLAW 261120Z 2612/2712 01020G28KT P6SM SCT050
     FM261500 01019G23KT P6SM SKC
     FM262000 36009KT P6SM SKC=



000
FTUS44 KOUN 261120
TAFGAG
TAF
KGAG 261120Z 2612/2712 29011KT P6SM SKC=



000
FTUS44 KOUN 261120
TAFOUN
TAF
KOUN 261120Z 2612/2712 36020G27KT P6SM SCT017 BKN080
     FM261500 36018G25KT P6SM SKC
     FM262100 35011KT P6SM SKC=



000
FTUS44 KOUN 261120
TAFOKC
TAF
KOKC 261120Z 2612/2712 36023G29KT P6SM SCT018 BKN050
     FM261500 36020G28KT P6SM SKC
     FM262100 35011KT P6SM SKC=



000
FTUS44 KOUN 261120
TAFWWR
TAF
KWWR 261120Z 2612/2712 30009KT P6SM SKC=



000
FTUS44 KOUN 261120
TAFOUN
TAF
KOUN 261120Z 2612/2712 36020G27KT P6SM SCT017 BKN080
     FM261500 36018G25KT P6SM SKC
     FM262100 35011KT P6SM SKC=



000
FTUS44 KOUN 261120
TAFLAW
TAF
KLAW 261120Z 2612/2712 01020G28KT P6SM SCT050
     FM261500 01019G23KT P6SM SKC
     FM262000 36009KT P6SM SKC=



000
FTUS44 KOUN 261120
TAFSPS
TAF
KSPS 261120Z 2612/2712 36015KT P6SM FEW050
     FM261500 36016G26KT P6SM SKC
     FM262000 34011KT P6SM SKC=



000
FTUS44 KOUN 261120
TAFHBR
TAF
KHBR 261120Z 2612/2712 02011KT P6SM SCT050
     FM261400 01012G19KT P6SM SKC
     FM262200 34008KT P6SM SKC=



000
FTUS44 KOUN 261120
TAFSPS
TAF
KSPS 261120Z 2612/2712 36015KT P6SM FEW050
     FM261500 36016G26KT P6SM SKC
     FM262000 34011KT P6SM SKC=



000
FTUS44 KOUN 261120
TAFGAG
TAF
KGAG 261120Z 2612/2712 29011KT P6SM SKC=



000
FTUS44 KOUN 260520
TAFPNC
TAF
KPNC 260520Z 2606/2706 02025G35KT P6SM SCT025 BKN080
      TEMPO 2607/2609 -RA BKN025
     FM260900 35014G22KT P6SM BKN025
     FM261100 35012G18KT P6SM SCT070 SCT150
     FM261400 36013KT P6SM SKC=



000
FTUS44 KOUN 260520
TAFWWR
TAF
KWWR 260520Z 2606/2706 35017G25KT P6SM BKN015
     FM260800 36011KT P6SM SCT060 SCT150
     FM261100 33006KT P6SM SKC=



000
FTUS44 KOUN 260520
TAFGAG
TAF
KGAG 260520Z 2606/2706 35020G28KT P6SM BKN020 BKN035
     FM260800 36011KT P6SM SCT060 SCT150
     FM261100 33006KT P6SM SKC=



000
FTUS44 KOUN 260520
TAFLAW
TAF
KLAW 260520Z 2606/2706 36024G34KT P6SM BKN028
     FM260900 36022G32KT P6SM BKN035
     FM261100 36020G28KT P6SM SCT040
     FM261800 36015G23KT P6SM FEW040=



000
FTUS44 KOUN 260520
TAFSPS
TAF
KSPS 260520Z 2606/2706 35024G32KT P6SM SCT025 BKN060 BKN180
     FM261100 36020G28KT P6SM SCT050 SCT200
     FM261500 36016G26KT P6SM SKC=



000
FTUS44 KOUN 260520
TAFOKC
TAF
KOKC 260520Z 2606/2706 34023G37KT P6SM BKN020 OVC025
     FM261000 36020G28KT P6SM BKN035
     FM261200 36019G26KT P6SM SCT040
     FM261500 36016G22KT P6SM SKC=



000
FTUS44 KOUN 260520
TAFPNC
TAF
KPNC 260520Z 2606/2706 02025G35KT P6SM SCT025 BKN080
      TEMPO 2607/2609 -RA BKN025
     FM260900 35014G22KT P6SM BKN025
     FM261100 35012G18KT P6SM SCT070 SCT150
     FM261400 36013KT P6SM SKC=



000
FTUS44 KOUN 260520
TAFHBR
TAF
KHBR 260520Z 2606/2706 01024G32KT P6SM BKN035
     FM260900 01024G32KT P6SM SCT050
     FM261300 01016G24KT P6SM SKC
     FM261800 36011KT P6SM SKC=



000
FTUS44 KOUN 260520
TAFLAW
TAF
KLAW 260520Z 2606/2706 36024G34KT P6SM BKN028
     FM260900 36022G32KT P6SM BKN035
     FM261100 36020G28KT P6SM SCT040
     FM261800 36015G23KT P6SM FEW040=



000
FTUS44 KOUN 260520
TAFSPS
TAF
KSPS 260520Z 2606/2706 35024G32KT P6SM SCT025 BKN060 BKN180
     FM261100 36020G28KT P6SM SCT050 SCT200
     FM261500 36016G26KT P6SM SKC=



000
FTUS44 KOUN 260520
TAFOKC
TAF
KOKC 260520Z 2606/2706 34023G37KT P6SM BKN020 OVC025
     FM261000 36020G28KT P6SM BKN035
     FM261200 36019G26KT P6SM SCT040
     FM261500 36016G22KT P6SM SKC=



000
FTUS44 KOUN 260520
TAFOUN
TAF
KOUN 260520Z 2606/2706 36024G37KT P6SM BKN020 OVC035
     FM261000 36020G28KT P6SM BKN035
     FM261200 36019G26KT P6SM SCT040
     FM261500 36016G22KT P6SM SKC=



000
FTUS44 KOUN 260520
TAFWWR
TAF
KWWR 260520Z 2606/2706 35017G25KT P6SM BKN015
     FM260800 36011KT P6SM SCT060 SCT150
     FM261100 33006KT P6SM SKC=



000
FTUS44 KOUN 260520
TAFGAG
TAF
KGAG 260520Z 2606/2706 35020G28KT P6SM BKN020 BKN035
     FM260800 36011KT P6SM SCT060 SCT150
     FM261100 33006KT P6SM SKC=



000
FTUS44 KOUN 260520
TAFHBR
TAF
KHBR 260520Z 2606/2706 01024G32KT P6SM BKN035
     FM260900 01024G32KT P6SM SCT050
     FM261300 01016G24KT P6SM SKC
     FM261800 36011KT P6SM SKC=



000
FTUS44 KOUN 260520
TAFOUN
TAF
KOUN 260520Z 2606/2706 36024G37KT P6SM BKN020 OVC035
     FM261000 36020G28KT P6SM BKN035
     FM261200 36019G26KT P6SM SCT040
     FM261500 36016G22KT P6SM SKC=



000
FTUS44 KOUN 252324
TAFOKC
TAF
KOKC 252324Z 2600/2624 34023G37KT P6SM SCT020 BKN150
      TEMPO 2600/2604 35034G44KT 5SM -TSRA BKN015CB OVC070
     FM260400 35029G39KT P6SM OVC050
     FM260900 36020G28KT P6SM BKN035
     FM261400 36016G27KT P6SM SCT040=



000
FTUS44 KOUN 252324
TAFHBR
TAF
KHBR 252324Z 2600/2624 36025G37KT P6SM SCT030 BKN200
      TEMPO 2600/2602 36038G48KT
     FM260200 36030G40KT P6SM BKN030 BKN200
     FM260700 01024G32KT P6SM BKN200
     FM261300 36016G24KT P6SM SKC=



000
FTUS44 KOUN 252324
TAFOKC
TAF
KOKC 252324Z 2600/2624 34023G37KT P6SM SCT020 BKN150
      TEMPO 2600/2604 35034G44KT 5SM -TSRA BKN015CB OVC070
     FM260400 35029G39KT P6SM OVC050
     FM260900 36020G28KT P6SM BKN035
     FM261400 36016G27KT P6SM SCT040=



000
FTUS44 KOUN 252324
TAFSPS
TAF
KSPS 252324Z 2600/2624 21017G27KT P6SM SCT050 BKN150 BKN250
     FM260200 36026G36KT P6SM BKN100 BKN200
      TEMPO 2602/2605 5SM -TSRA BKN030CB BKN150
     FM261000 36020G28KT P6SM SCT200
     FM261500 36016G26KT P6SM SKC=



000
FTUS44 KOUN 252324
TAFOKC
TAF
KOKC 252324Z 2600/2624 34023G37KT P6SM SCT020 BKN150
      TEMPO 2600/2604 35034G44KT 5SM -TSRA BKN015CB OVC070
     FM260400 35029G39KT P6SM OVC050
     FM260900 36020G28KT P6SM BKN035
     FM261400 36016G27KT P6SM SCT040=



000
FTUS44 KOUN 252324
TAFGAG
TAF
KGAG 252324Z 2600/2624 01028G42KT P6SM OVC030
     FM260700 36016G25KT P6SM SCT100 SCT250
     FM261100 33006KT P6SM SKC=



000
FTUS44 KOUN 252324
TAFWWR
TAF
KWWR 252324Z 2600/2624 36028G40KT P6SM OVC030
     FM260700 36016G25KT P6SM SCT100 SCT250
     FM261100 34006KT P6SM SKC=



000
FTUS44 KOUN 252324
TAFHBR
TAF
KHBR 252324Z 2600/2624 36025G37KT P6SM SCT030 BKN200
      TEMPO 2600/2602 36038G48KT
     FM260200 36030G40KT P6SM BKN030 BKN200
     FM260700 01024G32KT P6SM BKN200
     FM261300 36016G24KT P6SM SKC=



000
FTUS44 KOUN 252324
TAFPNC
TAF
KPNC 252324Z 2600/2624 02025G35KT P6SM VCSH OVC030
      TEMPO 2600/2603 5SM -RA OVC030
     FM260300 36022G32KT P6SM OVC030
     FM260900 35014G22KT P6SM BKN025
     FM261300 36013KT P6SM SKC=



000
FTUS44 KOUN 252324
TAFSPS
TAF
KSPS 252324Z 2600/2624 21017G27KT P6SM SCT050 BKN150 BKN250
     FM260200 36026G36KT P6SM BKN100 BKN200
      TEMPO 2602/2605 5SM -TSRA BKN030CB BKN150
     FM261000 36020G28KT P6SM SCT200
     FM261500 36016G26KT P6SM SKC=



000
FTUS44 KOUN 252324
TAFHBR
TAF
KHBR 252324Z 2600/2624 36025G37KT P6SM SCT030 BKN200
      TEMPO 2600/2602 36038G48KT
     FM260200 36030G40KT P6SM BKN030 BKN200
     FM260700 01024G32KT P6SM BKN200
     FM261300 36016G24KT P6SM SKC=



000
FTUS44 KOUN 252324
TAFLAW
TAF
KLAW 252324Z 2600/2624 36029G38KT P6SM SCT030 BKN250
      TEMPO 2600/2603 5SM -TSRA BKN030CB BKN200
     FM260900 36020G28KT P6SM BKN035
     FM261400 36017G26KT P6SM SCT040=



000
FTUS44 KOUN 252324
TAFSPS
TAF
KSPS 252324Z 2600/2624 21017G27KT P6SM SCT050 BKN150 BKN250
     FM260200 36026G36KT P6SM BKN100 BKN200
      TEMPO 2602/2605 5SM -TSRA BKN030CB BKN150
     FM261000 36020G28KT P6SM SCT200
     FM261500 36016G26KT P6SM SKC=



000
FTUS44 KOUN 252324
TAFLAW
TAF
KLAW 252324Z 2600/2624 36029G38KT P6SM SCT030 BKN250
      TEMPO 2600/2603 5SM -TSRA BKN030CB BKN200
     FM260900 36020G28KT P6SM BKN035
     FM261400 36017G26KT P6SM SCT040=



000
FTUS44 KOUN 252324
TAFGAG
TAF
KGAG 252324Z 2600/2624 01028G42KT P6SM OVC030
     FM260700 36016G25KT P6SM SCT100 SCT250
     FM261100 33006KT P6SM SKC=



000
FTUS44 KOUN 252324
TAFOUN
TAF
KOUN 252324Z 2600/2624 35024G37KT P6SM SCT020 BKN150
      TEMPO 2600/2604 35034G44KT 5SM -TSRA BKN015CB OVC070
     FM260400 35029G39KT P6SM OVC050
     FM260900 36020G28KT P6SM BKN035
     FM261400 36016G27KT P6SM SCT040=



000
FTUS44 KOUN 252324
TAFWWR
TAF
KWWR 252324Z 2600/2624 36028G40KT P6SM OVC030
     FM260700 36016G25KT P6SM SCT100 SCT250
     FM261100 34006KT P6SM SKC=



000
FTUS44 KOUN 252324
TAFGAG
TAF
KGAG 252324Z 2600/2624 01028G42KT P6SM OVC030
     FM260700 36016G25KT P6SM SCT100 SCT250
     FM261100 33006KT P6SM SKC=



000
FTUS44 KOUN 252324
TAFWWR
TAF
KWWR 252324Z 2600/2624 36028G40KT P6SM OVC030
     FM260700 36016G25KT P6SM SCT100 SCT250
     FM261100 34006KT P6SM SKC=



000
FTUS44 KOUN 252324
TAFOUN
TAF
KOUN 252324Z 2600/2624 35024G37KT P6SM SCT020 BKN150
      TEMPO 2600/2604 35034G44KT 5SM -TSRA BKN015CB OVC070
     FM260400 35029G39KT P6SM OVC050
     FM260900 36020G28KT P6SM BKN035
     FM261400 36016G27KT P6SM SCT040=



000
FTUS44 KOUN 252324
TAFPNC
TAF
KPNC 252324Z 2600/2624 02025G35KT P6SM VCSH OVC030
      TEMPO 2600/2603 5SM -RA OVC030
     FM260300 36022G32KT P6SM OVC030
     FM260900 35014G22KT P6SM BKN025
     FM261300 36013KT P6SM SKC=



000
FTUS44 KOUN 252324
TAFLAW
TAF
KLAW 252324Z 2600/2624 36029G38KT P6SM SCT030 BKN250
      TEMPO 2600/2603 5SM -TSRA BKN030CB BKN200
     FM260900 36020G28KT P6SM BKN035
     FM261400 36017G26KT P6SM SCT040=



000
FTUS44 KOUN 252042 AAA
TAFWWR
TAF AMD
KWWR 252042Z 2521/2618 36015G22KT P6SM SCT030 OVC250
      TEMPO 2521/2524 OVC025
     FM260000 36026G35KT P6SM BKN250
     FM260600 36013G20KT P6SM SCT100 SCT250
     FM260900 34006KT P6SM SKC=



000
FTUS44 KOUN 252042 AAA
TAFWWR
TAF AMD
KWWR 252042Z 2521/2618 36015G22KT P6SM SCT030 OVC250
      TEMPO 2521/2524 OVC025
     FM260000 36026G35KT P6SM BKN250
     FM260600 36013G20KT P6SM SCT100 SCT250
     FM260900 34006KT P6SM SKC=



000
FTUS44 KOUN 252042 AAA
TAFWWR
TAF AMD
KWWR 252042Z 2521/2618 36015G22KT P6SM SCT030 OVC250
      TEMPO 2521/2524 OVC025
     FM260000 36026G35KT P6SM BKN250
     FM260600 36013G20KT P6SM SCT100 SCT250
     FM260900 34006KT P6SM SKC=



000
FTUS44 KOUN 252042 AAA
TAFWWR
TAF AMD
KWWR 252042Z 2521/2618 36015G22KT P6SM SCT030 OVC250
      TEMPO 2521/2524 OVC025
     FM260000 36026G35KT P6SM BKN250
     FM260600 36013G20KT P6SM SCT100 SCT250
     FM260900 34006KT P6SM SKC=



000
FTUS44 KOUN 251723
TAFOUN
TAF
KOUN 251723Z 2518/2618 19014G22KT P6SM FEW050 SCT250
      TEMPO 2522/2601 VRB45KT 2SM TSRA BKN030CB BKN100
     FM260100 35028G37KT P6SM SCT015 OVC080
      TEMPO 2601/2604 35034G44KT 5SM -TSRA BKN015CB OVC070
     FM260400 35029G39KT P6SM OVC050
     FM260900 36020G28KT P6SM BKN035=



000
FTUS44 KOUN 251723
TAFOKC
TAF
KOKC 251723Z 2518/2618 19014G22KT P6SM FEW050 SCT250
      TEMPO 2522/2601 VRB45KT 2SM TSRA BKN030CB BKN100
     FM260100 35028G37KT P6SM SCT015 OVC080
      TEMPO 2601/2604 35034G44KT 5SM -TSRA BKN015CB OVC070
     FM260400 35029G39KT P6SM OVC050
     FM260900 36020G28KT P6SM BKN035=



000
FTUS44 KOUN 251723
TAFWWR
TAF
KWWR 251723Z 2518/2618 03010KT P6SM BKN250
     FM252000 36016G25KT P6SM BKN250
     FM252300 36026G35KT P6SM BKN250
     FM260600 36013G20KT P6SM SCT100 SCT250
     FM260900 34006KT P6SM SKC=



000
FTUS44 KOUN 251723
TAFPNC
TAF
KPNC 251723Z 2518/2618 11012KT P6SM BKN015 BKN250
     FM252000 10012KT P6SM SCT015 BKN030 BKN250
      TEMPO 2521/2601 VRB45KT 4SM TSRA BKN015CB OVC040
     FM260100 36025G35KT 5SM -RA BR BKN015 OVC030
     FM260900 35014G22KT P6SM BKN025
     FM261200 36012G18KT P6SM SKC=



000
FTUS44 KOUN 251723
TAFHBR
TAF
KHBR 251723Z 2518/2618 20011G18KT P6SM BKN250
     FM252000 22015G23KT P6SM FEW045 SCT250
     FM252300 36030G40KT P6SM SCT015 SCT200
      TEMPO 2523/2602 36038G48KT
     FM260200 36030G40KT P6SM BKN200
     FM260500 36024G32KT P6SM BKN200
     FM261200 36016G24KT P6SM SKC=



000
FTUS44 KOUN 251723
TAFLAW
TAF
KLAW 251723Z 2518/2618 18016G22KT P6SM SCT250
     FM252100 22015G22KT P6SM SCT050
     FM260200 36029G38KT P6SM SCT020 BKN250
     FM261200 36020G28KT P6SM BKN035=



000
FTUS44 KOUN 251723
TAFLAW
TAF
KLAW 251723Z 2518/2618 18016G22KT P6SM SCT250
     FM252100 22015G22KT P6SM SCT050
     FM260200 36029G38KT P6SM SCT020 BKN250
     FM261200 36020G28KT P6SM BKN035=



000
FTUS44 KOUN 251723
TAFPNC
TAF
KPNC 251723Z 2518/2618 11012KT P6SM BKN015 BKN250
     FM252000 10012KT P6SM SCT015 BKN030 BKN250
      TEMPO 2521/2601 VRB45KT 4SM TSRA BKN015CB OVC040
     FM260100 36025G35KT 5SM -RA BR BKN015 OVC030
     FM260900 35014G22KT P6SM BKN025
     FM261200 36012G18KT P6SM SKC=



000
FTUS44 KOUN 251723
TAFGAG
TAF
KGAG 251723Z 2518/2618 05010KT P6SM BKN250
     FM252000 02016G25KT P6SM BKN250
     FM252300 36026G35KT P6SM BKN250
     FM260600 36012G20KT P6SM SCT100 SCT250
     FM260900 33006KT P6SM SKC=



000
FTUS44 KOUN 251723
TAFSPS
TAF
KSPS 251723Z 2518/2618 19014G22KT P6SM SCT250
     FM252100 20018G25KT P6SM VCTS SCT040CB
     FM252300 23020G28KT P6SM SCT020 SCT250
     FM260200 36025G33KT P6SM BKN100 BKN200
     FM261000 36020G28KT P6SM SCT200=



000
FTUS44 KOUN 251723
TAFOUN
TAF
KOUN 251723Z 2518/2618 19014G22KT P6SM FEW050 SCT250
      TEMPO 2522/2601 VRB45KT 2SM TSRA BKN030CB BKN100
     FM260100 35028G37KT P6SM SCT015 OVC080
      TEMPO 2601/2604 35034G44KT 5SM -TSRA BKN015CB OVC070
     FM260400 35029G39KT P6SM OVC050
     FM260900 36020G28KT P6SM BKN035=



000
FTUS44 KOUN 251723
TAFSPS
TAF
KSPS 251723Z 2518/2618 19014G22KT P6SM SCT250
     FM252100 20018G25KT P6SM VCTS SCT040CB
     FM252300 23020G28KT P6SM SCT020 SCT250
     FM260200 36025G33KT P6SM BKN100 BKN200
     FM261000 36020G28KT P6SM SCT200=



000
FTUS44 KOUN 251723
TAFOKC
TAF
KOKC 251723Z 2518/2618 19014G22KT P6SM FEW050 SCT250
      TEMPO 2522/2601 VRB45KT 2SM TSRA BKN030CB BKN100
     FM260100 35028G37KT P6SM SCT015 OVC080
      TEMPO 2601/2604 35034G44KT 5SM -TSRA BKN015CB OVC070
     FM260400 35029G39KT P6SM OVC050
     FM260900 36020G28KT P6SM BKN035=



000
FTUS44 KOUN 251723
TAFWWR
TAF
KWWR 251723Z 2518/2618 03010KT P6SM BKN250
     FM252000 36016G25KT P6SM BKN250
     FM252300 36026G35KT P6SM BKN250
     FM260600 36013G20KT P6SM SCT100 SCT250
     FM260900 34006KT P6SM SKC=



000
FTUS44 KOUN 251723
TAFGAG
TAF
KGAG 251723Z 2518/2618 05010KT P6SM BKN250
     FM252000 02016G25KT P6SM BKN250
     FM252300 36026G35KT P6SM BKN250
     FM260600 36012G20KT P6SM SCT100 SCT250
     FM260900 33006KT P6SM SKC=



000
FTUS44 KOUN 251723
TAFHBR
TAF
KHBR 251723Z 2518/2618 20011G18KT P6SM BKN250
     FM252000 22015G23KT P6SM FEW045 SCT250
     FM252300 36030G40KT P6SM SCT015 SCT200
      TEMPO 2523/2602 36038G48KT
     FM260200 36030G40KT P6SM BKN200
     FM260500 36024G32KT P6SM BKN200
     FM261200 36016G24KT P6SM SKC=



000
FTUS44 KOUN 251723
TAFWWR
TAF
KWWR 251723Z 2518/2618 03010KT P6SM BKN250
     FM252000 36016G25KT P6SM BKN250
     FM252300 36026G35KT P6SM BKN250
     FM260600 36013G20KT P6SM SCT100 SCT250
     FM260900 34006KT P6SM SKC=



000
FTUS44 KOUN 251723
TAFHBR
TAF
KHBR 251723Z 2518/2618 20011G18KT P6SM BKN250
     FM252000 22015G23KT P6SM FEW045 SCT250
     FM252300 36030G40KT P6SM SCT015 SCT200
      TEMPO 2523/2602 36038G48KT
     FM260200 36030G40KT P6SM BKN200
     FM260500 36024G32KT P6SM BKN200
     FM261200 36016G24KT P6SM SKC=



000
FTUS44 KOUN 251723
TAFPNC
TAF
KPNC 251723Z 2518/2618 11012KT P6SM BKN015 BKN250
     FM252000 10012KT P6SM SCT015 BKN030 BKN250
      TEMPO 2521/2601 VRB45KT 4SM TSRA BKN015CB OVC040
     FM260100 36025G35KT 5SM -RA BR BKN015 OVC030
     FM260900 35014G22KT P6SM BKN025
     FM261200 36012G18KT P6SM SKC=



000
FTUS44 KOUN 251723
TAFLAW
TAF
KLAW 251723Z 2518/2618 18016G22KT P6SM SCT250
     FM252100 22015G22KT P6SM SCT050
     FM260200 36029G38KT P6SM SCT020 BKN250
     FM261200 36020G28KT P6SM BKN035=



000
FTUS44 KOUN 251723
TAFOUN
TAF
KOUN 251723Z 2518/2618 19014G22KT P6SM FEW050 SCT250
      TEMPO 2522/2601 VRB45KT 2SM TSRA BKN030CB BKN100
     FM260100 35028G37KT P6SM SCT015 OVC080
      TEMPO 2601/2604 35034G44KT 5SM -TSRA BKN015CB OVC070
     FM260400 35029G39KT P6SM OVC050
     FM260900 36020G28KT P6SM BKN035=



000
FTUS44 KOUN 251723
TAFPNC
TAF
KPNC 251723Z 2518/2618 11012KT P6SM BKN015 BKN250
     FM252000 10012KT P6SM SCT015 BKN030 BKN250
      TEMPO 2521/2601 VRB45KT 4SM TSRA BKN015CB OVC040
     FM260100 36025G35KT 5SM -RA BR BKN015 OVC030
     FM260900 35014G22KT P6SM BKN025
     FM261200 36012G18KT P6SM SKC=



000
FTUS44 KOUN 251723
TAFGAG
TAF
KGAG 251723Z 2518/2618 05010KT P6SM BKN250
     FM252000 02016G25KT P6SM BKN250
     FM252300 36026G35KT P6SM BKN250
     FM260600 36012G20KT P6SM SCT100 SCT250
     FM260900 33006KT P6SM SKC=



000
FTUS44 KOUN 251723
TAFHBR
TAF
KHBR 251723Z 2518/2618 20011G18KT P6SM BKN250
     FM252000 22015G23KT P6SM FEW045 SCT250
     FM252300 36030G40KT P6SM SCT015 SCT200
      TEMPO 2523/2602 36038G48KT
     FM260200 36030G40KT P6SM BKN200
     FM260500 36024G32KT P6SM BKN200
     FM261200 36016G24KT P6SM SKC=



000
FTUS44 KOUN 251723
TAFOKC
TAF
KOKC 251723Z 2518/2618 19014G22KT P6SM FEW050 SCT250
      TEMPO 2522/2601 VRB45KT 2SM TSRA BKN030CB BKN100
     FM260100 35028G37KT P6SM SCT015 OVC080
      TEMPO 2601/2604 35034G44KT 5SM -TSRA BKN015CB OVC070
     FM260400 35029G39KT P6SM OVC050
     FM260900 36020G28KT P6SM BKN035=



000
FTUS44 KOUN 251723
TAFSPS
TAF
KSPS 251723Z 2518/2618 19014G22KT P6SM SCT250
     FM252100 20018G25KT P6SM VCTS SCT040CB
     FM252300 23020G28KT P6SM SCT020 SCT250
     FM260200 36025G33KT P6SM BKN100 BKN200
     FM261000 36020G28KT P6SM SCT200=



000
FTUS44 KOUN 251723
TAFWWR
TAF
KWWR 251723Z 2518/2618 03010KT P6SM BKN250
     FM252000 36016G25KT P6SM BKN250
     FM252300 36026G35KT P6SM BKN250
     FM260600 36013G20KT P6SM SCT100 SCT250
     FM260900 34006KT P6SM SKC=



000
FTUS44 KOUN 251723
TAFGAG
TAF
KGAG 251723Z 2518/2618 05010KT P6SM BKN250
     FM252000 02016G25KT P6SM BKN250
     FM252300 36026G35KT P6SM BKN250
     FM260600 36012G20KT P6SM SCT100 SCT250
     FM260900 33006KT P6SM SKC=



000
FTUS44 KOUN 251723
TAFSPS
TAF
KSPS 251723Z 2518/2618 19014G22KT P6SM SCT250
     FM252100 20018G25KT P6SM VCTS SCT040CB
     FM252300 23020G28KT P6SM SCT020 SCT250
     FM260200 36025G33KT P6SM BKN100 BKN200
     FM261000 36020G28KT P6SM SCT200=



000
FTUS44 KOUN 251723
TAFLAW
TAF
KLAW 251723Z 2518/2618 18016G22KT P6SM SCT250
     FM252100 22015G22KT P6SM SCT050
     FM260200 36029G38KT P6SM SCT020 BKN250
     FM261200 36020G28KT P6SM BKN035=



000
FTUS44 KOUN 251723
TAFOUN
TAF
KOUN 251723Z 2518/2618 19014G22KT P6SM FEW050 SCT250
      TEMPO 2522/2601 VRB45KT 2SM TSRA BKN030CB BKN100
     FM260100 35028G37KT P6SM SCT015 OVC080
      TEMPO 2601/2604 35034G44KT 5SM -TSRA BKN015CB OVC070
     FM260400 35029G39KT P6SM OVC050
     FM260900 36020G28KT P6SM BKN035=



000
FTUS44 KOUN 251723
TAFOKC
TAF
KOKC 251723Z 2518/2618 19014G22KT P6SM FEW050 SCT250
      TEMPO 2522/2601 VRB45KT 2SM TSRA BKN030CB BKN100
     FM260100 35028G37KT P6SM SCT015 OVC080
      TEMPO 2601/2604 35034G44KT 5SM -TSRA BKN015CB OVC070
     FM260400 35029G39KT P6SM OVC050
     FM260900 36020G28KT P6SM BKN035=



000
FTUS44 KOUN 251145
TAFWWR
TAF
KWWR 251145Z 2512/2612 03003KT P6SM BKN250
     FM252000 36016G25KT P6SM BKN250
     FM252300 36030G38KT P6SM BKN250
     FM260300 36023G34KT P6SM BKN070 BKN150
     FM260600 36013G20KT P6SM SCT100 SCT250=



000
FTUS44 KOUN 251145
TAFGAG
TAF
KGAG 251145Z 2512/2612 05004KT P6SM BKN250
     FM252000 36016G25KT P6SM BKN250
     FM252300 36030G38KT P6SM BKN250
     FM260300 36023G34KT P6SM BKN070 BKN150
     FM260600 36013G20KT P6SM SCT100 SCT250=



000
FTUS44 KOUN 251145
TAFLAW
TAF
KLAW 251145Z 2512/2612 12006KT P6SM SCT250
     FM251500 18016G22KT P6SM SCT250
     FM260200 36029G38KT P6SM SCT020 BKN250=



000
FTUS44 KOUN 251145
TAFOUN
TAF
KOUN 251145Z 2512/2612 13007KT P6SM SKC
     FM251500 17012G18KT P6SM SCT250
     FM251800 19014G22KT P6SM FEW050 SCT250
      TEMPO 2522/2601 VRB45KT 2SM TSRA BKN030CB BKN100
     FM260100 35028G37KT P6SM SCT015 OVC080
      TEMPO 2601/2604 35034G44KT 5SM -TSRA BKN015CB OVC070
     FM260400 35029G39KT P6SM OVC050=



000
FTUS44 KOUN 251145
TAFSPS
TAF
KSPS 251145Z 2512/2612 13005KT P6SM SKC
     FM251600 19014G22KT P6SM SCT250
     FM252200 23022G30KT P6SM SCT020 SCT250
     FM260300 36030G39KT P6SM BKN100 BKN200
     FM261000 36020G28KT P6SM SCT200=



000
FTUS44 KOUN 251145
TAFGAG
TAF
KGAG 251145Z 2512/2612 05004KT P6SM BKN250
     FM252000 36016G25KT P6SM BKN250
     FM252300 36030G38KT P6SM BKN250
     FM260300 36023G34KT P6SM BKN070 BKN150
     FM260600 36013G20KT P6SM SCT100 SCT250=



000
FTUS44 KOUN 251145
TAFLAW
TAF
KLAW 251145Z 2512/2612 12006KT P6SM SCT250
     FM251500 18016G22KT P6SM SCT250
     FM260200 36029G38KT P6SM SCT020 BKN250=



000
FTUS44 KOUN 251145
TAFOKC
TAF
KOKC 251145Z 2512/2612 14010KT P6SM SCT250
     FM251500 17012G18KT P6SM SCT250
     FM251800 19014G22KT P6SM FEW050 SCT250
      TEMPO 2522/2601 VRB45KT 2SM TSRA BKN030CB BKN100
     FM260100 35028G37KT P6SM SCT015 OVC080
      TEMPO 2601/2604 35034G44KT 5SM -TSRA BKN015CB OVC070
     FM260400 35029G39KT P6SM OVC050=



000
FTUS44 KOUN 251145
TAFPNC
TAF
KPNC 251145Z 2512/2612 01004KT P6SM BKN250
     FM251500 11012KT P6SM BKN015 BKN250
     FM252000 10012KT P6SM SCT015 BKN035 BKN250
      TEMPO 2520/2524 VRB45KT 4SM TSRA BKN030CB OVC040
     FM260000 36025G35KT 5SM -RA BKN015 OVC030=



000
FTUS44 KOUN 251145
TAFHBR
TAF
KHBR 251145Z 2512/2612 35003KT P6SM SKC
     FM251500 17011G18KT P6SM BKN250
     FM252000 29015G23KT P6SM FEW045 SCT250
     FM252300 36030G40KT P6SM SCT015 SCT200
      TEMPO 2523/2602 36038G48KT
     FM260200 36030G40KT P6SM BKN200
     FM260500 36024G32KT P6SM BKN200=



000
FTUS44 KOUN 251145
TAFWWR
TAF
KWWR 251145Z 2512/2612 03003KT P6SM BKN250
     FM252000 36016G25KT P6SM BKN250
     FM252300 36030G38KT P6SM BKN250
     FM260300 36023G34KT P6SM BKN070 BKN150
     FM260600 36013G20KT P6SM SCT100 SCT250=



000
FTUS44 KOUN 251145
TAFOKC
TAF
KOKC 251145Z 2512/2612 14010KT P6SM SCT250
     FM251500 17012G18KT P6SM SCT250
     FM251800 19014G22KT P6SM FEW050 SCT250
      TEMPO 2522/2601 VRB45KT 2SM TSRA BKN030CB BKN100
     FM260100 35028G37KT P6SM SCT015 OVC080
      TEMPO 2601/2604 35034G44KT 5SM -TSRA BKN015CB OVC070
     FM260400 35029G39KT P6SM OVC050=



000
FTUS44 KOUN 251145
TAFOUN
TAF
KOUN 251145Z 2512/2612 13007KT P6SM SKC
     FM251500 17012G18KT P6SM SCT250
     FM251800 19014G22KT P6SM FEW050 SCT250
      TEMPO 2522/2601 VRB45KT 2SM TSRA BKN030CB BKN100
     FM260100 35028G37KT P6SM SCT015 OVC080
      TEMPO 2601/2604 35034G44KT 5SM -TSRA BKN015CB OVC070
     FM260400 35029G39KT P6SM OVC050=



000
FTUS44 KOUN 251145
TAFGAG
TAF
KGAG 251145Z 2512/2612 05004KT P6SM BKN250
     FM252000 36016G25KT P6SM BKN250
     FM252300 36030G38KT P6SM BKN250
     FM260300 36023G34KT P6SM BKN070 BKN150
     FM260600 36013G20KT P6SM SCT100 SCT250=



000
FTUS44 KOUN 251145
TAFHBR
TAF
KHBR 251145Z 2512/2612 35003KT P6SM SKC
     FM251500 17011G18KT P6SM BKN250
     FM252000 29015G23KT P6SM FEW045 SCT250
     FM252300 36030G40KT P6SM SCT015 SCT200
      TEMPO 2523/2602 36038G48KT
     FM260200 36030G40KT P6SM BKN200
     FM260500 36024G32KT P6SM BKN200=



000
FTUS44 KOUN 251145
TAFOUN
TAF
KOUN 251145Z 2512/2612 13007KT P6SM SKC
     FM251500 17012G18KT P6SM SCT250
     FM251800 19014G22KT P6SM FEW050 SCT250
      TEMPO 2522/2601 VRB45KT 2SM TSRA BKN030CB BKN100
     FM260100 35028G37KT P6SM SCT015 OVC080
      TEMPO 2601/2604 35034G44KT 5SM -TSRA BKN015CB OVC070
     FM260400 35029G39KT P6SM OVC050=



000
FTUS44 KOUN 251145
TAFPNC
TAF
KPNC 251145Z 2512/2612 01004KT P6SM BKN250
     FM251500 11012KT P6SM BKN015 BKN250
     FM252000 10012KT P6SM SCT015 BKN035 BKN250
      TEMPO 2520/2524 VRB45KT 4SM TSRA BKN030CB OVC040
     FM260000 36025G35KT 5SM -RA BKN015 OVC030=



000
FTUS44 KOUN 251145
TAFHBR
TAF
KHBR 251145Z 2512/2612 35003KT P6SM SKC
     FM251500 17011G18KT P6SM BKN250
     FM252000 29015G23KT P6SM FEW045 SCT250
     FM252300 36030G40KT P6SM SCT015 SCT200
      TEMPO 2523/2602 36038G48KT
     FM260200 36030G40KT P6SM BKN200
     FM260500 36024G32KT P6SM BKN200=



000
FTUS44 KOUN 251145
TAFPNC
TAF
KPNC 251145Z 2512/2612 01004KT P6SM BKN250
     FM251500 11012KT P6SM BKN015 BKN250
     FM252000 10012KT P6SM SCT015 BKN035 BKN250
      TEMPO 2520/2524 VRB45KT 4SM TSRA BKN030CB OVC040
     FM260000 36025G35KT 5SM -RA BKN015 OVC030=



000
FTUS44 KOUN 251145
TAFLAW
TAF
KLAW 251145Z 2512/2612 12006KT P6SM SCT250
     FM251500 18016G22KT P6SM SCT250
     FM260200 36029G38KT P6SM SCT020 BKN250=



000
FTUS44 KOUN 251145
TAFSPS
TAF
KSPS 251145Z 2512/2612 13005KT P6SM SKC
     FM251600 19014G22KT P6SM SCT250
     FM252200 23022G30KT P6SM SCT020 SCT250
     FM260300 36030G39KT P6SM BKN100 BKN200
     FM261000 36020G28KT P6SM SCT200=



000
FTUS44 KOUN 251145
TAFWWR
TAF
KWWR 251145Z 2512/2612 03003KT P6SM BKN250
     FM252000 36016G25KT P6SM BKN250
     FM252300 36030G38KT P6SM BKN250
     FM260300 36023G34KT P6SM BKN070 BKN150
     FM260600 36013G20KT P6SM SCT100 SCT250=



000
FTUS44 KOUN 251145
TAFWWR
TAF
KWWR 251145Z 2512/2612 03003KT P6SM BKN250
     FM252000 36016G25KT P6SM BKN250
     FM252300 36030G38KT P6SM BKN250
     FM260300 36023G34KT P6SM BKN070 BKN150
     FM260600 36013G20KT P6SM SCT100 SCT250=



000
FTUS44 KOUN 251145
TAFGAG
TAF
KGAG 251145Z 2512/2612 05004KT P6SM BKN250
     FM252000 36016G25KT P6SM BKN250
     FM252300 36030G38KT P6SM BKN250
     FM260300 36023G34KT P6SM BKN070 BKN150
     FM260600 36013G20KT P6SM SCT100 SCT250=



000
FTUS44 KOUN 251145
TAFLAW
TAF
KLAW 251145Z 2512/2612 12006KT P6SM SCT250
     FM251500 18016G22KT P6SM SCT250
     FM260200 36029G38KT P6SM SCT020 BKN250=



000
FTUS44 KOUN 251145
TAFOKC
TAF
KOKC 251145Z 2512/2612 14010KT P6SM SCT250
     FM251500 17012G18KT P6SM SCT250
     FM251800 19014G22KT P6SM FEW050 SCT250
      TEMPO 2522/2601 VRB45KT 2SM TSRA BKN030CB BKN100
     FM260100 35028G37KT P6SM SCT015 OVC080
      TEMPO 2601/2604 35034G44KT 5SM -TSRA BKN015CB OVC070
     FM260400 35029G39KT P6SM OVC050=



000
FTUS44 KOUN 251145
TAFSPS
TAF
KSPS 251145Z 2512/2612 13005KT P6SM SKC
     FM251600 19014G22KT P6SM SCT250
     FM252200 23022G30KT P6SM SCT020 SCT250
     FM260300 36030G39KT P6SM BKN100 BKN200
     FM261000 36020G28KT P6SM SCT200=



000
FTUS44 KOUN 251145
TAFOUN
TAF
KOUN 251145Z 2512/2612 13007KT P6SM SKC
     FM251500 17012G18KT P6SM SCT250
     FM251800 19014G22KT P6SM FEW050 SCT250
      TEMPO 2522/2601 VRB45KT 2SM TSRA BKN030CB BKN100
     FM260100 35028G37KT P6SM SCT015 OVC080
      TEMPO 2601/2604 35034G44KT 5SM -TSRA BKN015CB OVC070
     FM260400 35029G39KT P6SM OVC050=



000
FTUS44 KOUN 251145
TAFOKC
TAF
KOKC 251145Z 2512/2612 14010KT P6SM SCT250
     FM251500 17012G18KT P6SM SCT250
     FM251800 19014G22KT P6SM FEW050 SCT250
      TEMPO 2522/2601 VRB45KT 2SM TSRA BKN030CB BKN100
     FM260100 35028G37KT P6SM SCT015 OVC080
      TEMPO 2601/2604 35034G44KT 5SM -TSRA BKN015CB OVC070
     FM260400 35029G39KT P6SM OVC050=



000
FTUS44 KOUN 251145
TAFPNC
TAF
KPNC 251145Z 2512/2612 01004KT P6SM BKN250
     FM251500 11012KT P6SM BKN015 BKN250
     FM252000 10012KT P6SM SCT015 BKN035 BKN250
      TEMPO 2520/2524 VRB45KT 4SM TSRA BKN030CB OVC040
     FM260000 36025G35KT 5SM -RA BKN015 OVC030=



000
FTUS44 KOUN 251145
TAFHBR
TAF
KHBR 251145Z 2512/2612 35003KT P6SM SKC
     FM251500 17011G18KT P6SM BKN250
     FM252000 29015G23KT P6SM FEW045 SCT250
     FM252300 36030G40KT P6SM SCT015 SCT200
      TEMPO 2523/2602 36038G48KT
     FM260200 36030G40KT P6SM BKN200
     FM260500 36024G32KT P6SM BKN200=



000
FTUS44 KOUN 250535
TAFPNC
TAF
KPNC 250535Z 2506/2606 VRB03KT P6SM BKN250
     FM251400 14010KT P6SM SCT015 SCT250
     FM252300 36022G32KT P6SM BKN030 BKN250 PROB30 2523/2604 4SM
      -TSRA BR BKN020CB BKN100=



000
FTUS44 KOUN 250535
TAFOUN
TAF
KOUN 250535Z 2506/2606 VRB04KT P6SM SCT250
     FM251300 14012G18KT P6SM BKN015 BKN250
     FM251800 18014G22KT P6SM SCT015 SCT250
      TEMPO 2521/2524 VRB40KT 2SM TSRA BKN020CB BKN100
     FM260000 35024G34KT P6SM SCT015 OVC080
      TEMPO 2600/2604 5SM -TSRA BKN015CB OVC070=



000
FTUS44 KOUN 250535
TAFGAG
TAF
KGAG 250535Z 2506/2606 15008KT P6SM BKN250
     FM252100 35016G25KT P6SM SCT250
     FM260000 36023G34KT P6SM BKN030 BKN150=



000
FTUS44 KOUN 250535
TAFWWR
TAF
KWWR 250535Z 2506/2606 16008KT P6SM BKN250
     FM252100 34016G25KT P6SM SCT250
     FM260000 36022G33KT P6SM BKN030 BKN150=



000
FTUS44 KOUN 250535
TAFOKC
TAF
KOKC 250535Z 2506/2606 VRB05KT P6SM SCT250
     FM251400 13012G18KT P6SM BKN015 BKN250
     FM251800 18014G22KT P6SM SCT020 SCT250
      TEMPO 2521/2524 VRB40KT 2SM TSRA BKN020CB BKN100
     FM260000 35024G34KT P6SM SCT015 OVC080
      TEMPO 2600/2604 5SM -TSRA BKN015CB OVC070=



000
FTUS44 KOUN 250535
TAFHBR
TAF
KHBR 250535Z 2506/2606 12007KT P6SM FEW250
     FM251400 20013KT P6SM SCT015 SCT250
     FM260000 36022G32KT P6SM SCT020 BKN250 PROB30 2600/2605 5SM
      -TSRA BKN020CB BKN150
     FM260500 01023G33KT P6SM BKN020 OVC150=



000
FTUS44 KOUN 250535
TAFLAW
TAF
KLAW 250535Z 2506/2606 VRB05KT P6SM FEW250
     FM251100 10007KT P6SM SCT015
     FM251500 18014KT P6SM SCT250
     FM252200 23012KT P6SM SCT020 BKN250
      TEMPO 2522/2602 VRB40KT 2SM TSRA BKN020CB BKN100
     FM260200 36021G31KT P6SM BKN030 BKN150 PROB30 2602/2606 5SM
      -TSRA BKN015CB OVC100=



000
FTUS44 KOUN 250535
TAFSPS
TAF
KSPS 250535Z 2506/2606 08008KT P6SM SKC
     FM251000 12007KT P6SM BKN015
     FM251500 19015G25KT P6SM SCT020 BKN250 PROB30 2523/2603 3SM
      TSRA BKN020CB BKN100
     FM260300 36023G33KT P6SM BKN030 BKN150
      TEMPO 2603/2606 VRB40KT 5SM -TSRA BKN015CB OVC100=



000
FTUS44 KOUN 250535
TAFPNC
TAF
KPNC 250535Z 2506/2606 VRB03KT P6SM BKN250
     FM251400 14010KT P6SM SCT015 SCT250
     FM252300 36022G32KT P6SM BKN030 BKN250 PROB30 2523/2604 4SM
      -TSRA BR BKN020CB BKN100=



000
FTUS44 KOUN 250535
TAFWWR
TAF
KWWR 250535Z 2506/2606 16008KT P6SM BKN250
     FM252100 34016G25KT P6SM SCT250
     FM260000 36022G33KT P6SM BKN030 BKN150=



000
FTUS44 KOUN 250535
TAFHBR
TAF
KHBR 250535Z 2506/2606 12007KT P6SM FEW250
     FM251400 20013KT P6SM SCT015 SCT250
     FM260000 36022G32KT P6SM SCT020 BKN250 PROB30 2600/2605 5SM
      -TSRA BKN020CB BKN150
     FM260500 01023G33KT P6SM BKN020 OVC150=



000
FTUS44 KOUN 250535
TAFLAW
TAF
KLAW 250535Z 2506/2606 VRB05KT P6SM FEW250
     FM251100 10007KT P6SM SCT015
     FM251500 18014KT P6SM SCT250
     FM252200 23012KT P6SM SCT020 BKN250
      TEMPO 2522/2602 VRB40KT 2SM TSRA BKN020CB BKN100
     FM260200 36021G31KT P6SM BKN030 BKN150 PROB30 2602/2606 5SM
      -TSRA BKN015CB OVC100=



000
FTUS44 KOUN 250535
TAFSPS
TAF
KSPS 250535Z 2506/2606 08008KT P6SM SKC
     FM251000 12007KT P6SM BKN015
     FM251500 19015G25KT P6SM SCT020 BKN250 PROB30 2523/2603 3SM
      TSRA BKN020CB BKN100
     FM260300 36023G33KT P6SM BKN030 BKN150
      TEMPO 2603/2606 VRB40KT 5SM -TSRA BKN015CB OVC100=



000
FTUS44 KOUN 250535
TAFOKC
TAF
KOKC 250535Z 2506/2606 VRB05KT P6SM SCT250
     FM251400 13012G18KT P6SM BKN015 BKN250
     FM251800 18014G22KT P6SM SCT020 SCT250
      TEMPO 2521/2524 VRB40KT 2SM TSRA BKN020CB BKN100
     FM260000 35024G34KT P6SM SCT015 OVC080
      TEMPO 2600/2604 5SM -TSRA BKN015CB OVC070=



000
FTUS44 KOUN 250535
TAFOUN
TAF
KOUN 250535Z 2506/2606 VRB04KT P6SM SCT250
     FM251300 14012G18KT P6SM BKN015 BKN250
     FM251800 18014G22KT P6SM SCT015 SCT250
      TEMPO 2521/2524 VRB40KT 2SM TSRA BKN020CB BKN100
     FM260000 35024G34KT P6SM SCT015 OVC080
      TEMPO 2600/2604 5SM -TSRA BKN015CB OVC070=



000
FTUS44 KOUN 250535
TAFGAG
TAF
KGAG 250535Z 2506/2606 15008KT P6SM BKN250
     FM252100 35016G25KT P6SM SCT250
     FM260000 36023G34KT P6SM BKN030 BKN150=



000
FTUS44 KOUN 250535
TAFPNC
TAF
KPNC 250535Z 2506/2606 VRB03KT P6SM BKN250
     FM251400 14010KT P6SM SCT015 SCT250
     FM252300 36022G32KT P6SM BKN030 BKN250 PROB30 2523/2604 4SM
      -TSRA BR BKN020CB BKN100=



000
FTUS44 KOUN 250535
TAFOKC
TAF
KOKC 250535Z 2506/2606 VRB05KT P6SM SCT250
     FM251400 13012G18KT P6SM BKN015 BKN250
     FM251800 18014G22KT P6SM SCT020 SCT250
      TEMPO 2521/2524 VRB40KT 2SM TSRA BKN020CB BKN100
     FM260000 35024G34KT P6SM SCT015 OVC080
      TEMPO 2600/2604 5SM -TSRA BKN015CB OVC070=



000
FTUS44 KOUN 250535
TAFSPS
TAF
KSPS 250535Z 2506/2606 08008KT P6SM SKC
     FM251000 12007KT P6SM BKN015
     FM251500 19015G25KT P6SM SCT020 BKN250 PROB30 2523/2603 3SM
      TSRA BKN020CB BKN100
     FM260300 36023G33KT P6SM BKN030 BKN150
      TEMPO 2603/2606 VRB40KT 5SM -TSRA BKN015CB OVC100=



000
FTUS44 KOUN 250535
TAFOUN
TAF
KOUN 250535Z 2506/2606 VRB04KT P6SM SCT250
     FM251300 14012G18KT P6SM BKN015 BKN250
     FM251800 18014G22KT P6SM SCT015 SCT250
      TEMPO 2521/2524 VRB40KT 2SM TSRA BKN020CB BKN100
     FM260000 35024G34KT P6SM SCT015 OVC080
      TEMPO 2600/2604 5SM -TSRA BKN015CB OVC070=



000
FTUS44 KOUN 250535
TAFWWR
TAF
KWWR 250535Z 2506/2606 16008KT P6SM BKN250
     FM252100 34016G25KT P6SM SCT250
     FM260000 36022G33KT P6SM BKN030 BKN150=



000
FTUS44 KOUN 250535
TAFLAW
TAF
KLAW 250535Z 2506/2606 VRB05KT P6SM FEW250
     FM251100 10007KT P6SM SCT015
     FM251500 18014KT P6SM SCT250
     FM252200 23012KT P6SM SCT020 BKN250
      TEMPO 2522/2602 VRB40KT 2SM TSRA BKN020CB BKN100
     FM260200 36021G31KT P6SM BKN030 BKN150 PROB30 2602/2606 5SM
      -TSRA BKN015CB OVC100=



000
FTUS44 KOUN 250535
TAFHBR
TAF
KHBR 250535Z 2506/2606 12007KT P6SM FEW250
     FM251400 20013KT P6SM SCT015 SCT250
     FM260000 36022G32KT P6SM SCT020 BKN250 PROB30 2600/2605 5SM
      -TSRA BKN020CB BKN150
     FM260500 01023G33KT P6SM BKN020 OVC150=



000
FTUS44 KOUN 250535
TAFGAG
TAF
KGAG 250535Z 2506/2606 15008KT P6SM BKN250
     FM252100 35016G25KT P6SM SCT250
     FM260000 36023G34KT P6SM BKN030 BKN150=



000
FTUS44 KOUN 242322
TAFLAW
TAF
KLAW 242322Z 2500/2524 02006KT P6SM FEW250
     FM250900 09008KT P6SM SCT250
     FM251500 16012KT P6SM SCT250
     FM252200 20015G25KT P6SM SCT020 BKN250 PROB30 2522/2524 4SM
      -TSRA BKN020CB BKN100=



000
FTUS44 KOUN 242322
TAFSPS
TAF
KSPS 242322Z 2500/2524 02009KT P6SM FEW250
     FM250900 10009KT P6SM SCT250
     FM251500 18013KT P6SM BKN250
     FM252200 20017G27KT P6SM SCT020 BKN250 PROB30 2522/2524 4SM
      -TSRA BKN020CB BKN100=



000
FTUS44 KOUN 242322
TAFOKC
TAF
KOKC 242322Z 2500/2524 02008KT P6SM SCT250
     FM250700 12007KT P6SM BKN250
     FM251400 14012G18KT P6SM BKN015
     FM251800 18014G22KT P6SM SCT020 BKN250
      TEMPO 2520/2524 2SM -TSRA BKN020CB BKN100=



000
FTUS44 KOUN 242322
TAFWWR
TAF
KWWR 242322Z 2500/2524 VRB06KT P6SM BKN250
     FM250800 19010KT P6SM BKN250
     FM251900 34016G25KT P6SM BKN250=



000
FTUS44 KOUN 242322
TAFOUN
TAF
KOUN 242322Z 2500/2524 36008KT P6SM SCT250
     FM250600 12007KT P6SM BKN250
     FM251500 14012G18KT P6SM BKN015
     FM251800 18014G22KT P6SM SCT015 BKN250
      TEMPO 2520/2524 2SM -TSRA BKN020CB BKN100=



000
FTUS44 KOUN 242322
TAFOKC
TAF
KOKC 242322Z 2500/2524 02008KT P6SM SCT250
     FM250700 12007KT P6SM BKN250
     FM251400 14012G18KT P6SM BKN015
     FM251800 18014G22KT P6SM SCT020 BKN250
      TEMPO 2520/2524 2SM -TSRA BKN020CB BKN100=



000
FTUS44 KOUN 242322
TAFOUN
TAF
KOUN 242322Z 2500/2524 36008KT P6SM SCT250
     FM250600 12007KT P6SM BKN250
     FM251500 14012G18KT P6SM BKN015
     FM251800 18014G22KT P6SM SCT015 BKN250
      TEMPO 2520/2524 2SM -TSRA BKN020CB BKN100=



000
FTUS44 KOUN 242322
TAFPNC
TAF
KPNC 242322Z 2500/2524 33010KT P6SM FEW250
     FM250300 VRB03KT P6SM BKN250
     FM251400 16012KT P6SM BKN250
     FM252100 36013KT P6SM SCT020 BKN250 PROB30 2521/2524 4SM -TSRA
      BR BKN020CB BKN100=



000
FTUS44 KOUN 242322
TAFGAG
TAF
KGAG 242322Z 2500/2524 VRB06KT P6SM BKN250
     FM250800 19010KT P6SM BKN250
     FM251900 35016G25KT P6SM BKN250=



000
FTUS44 KOUN 242322
TAFSPS
TAF
KSPS 242322Z 2500/2524 02009KT P6SM FEW250
     FM250900 10009KT P6SM SCT250
     FM251500 18013KT P6SM BKN250
     FM252200 20017G27KT P6SM SCT020 BKN250 PROB30 2522/2524 4SM
      -TSRA BKN020CB BKN100=



000
FTUS44 KOUN 242322
TAFSPS
TAF
KSPS 242322Z 2500/2524 02009KT P6SM FEW250
     FM250900 10009KT P6SM SCT250
     FM251500 18013KT P6SM BKN250
     FM252200 20017G27KT P6SM SCT020 BKN250 PROB30 2522/2524 4SM
      -TSRA BKN020CB BKN100=



000
FTUS44 KOUN 242322
TAFHBR
TAF
KHBR 242322Z 2500/2524 03007KT P6SM FEW250
     FM250700 13009KT P6SM SCT250
     FM251400 18013KT P6SM BKN250
     FM252200 34016G26KT P6SM SCT020 BKN250=



000
FTUS44 KOUN 242322
TAFLAW
TAF
KLAW 242322Z 2500/2524 02006KT P6SM FEW250
     FM250900 09008KT P6SM SCT250
     FM251500 16012KT P6SM SCT250
     FM252200 20015G25KT P6SM SCT020 BKN250 PROB30 2522/2524 4SM
      -TSRA BKN020CB BKN100=



000
FTUS44 KOUN 242322
TAFHBR
TAF
KHBR 242322Z 2500/2524 03007KT P6SM FEW250
     FM250700 13009KT P6SM SCT250
     FM251400 18013KT P6SM BKN250
     FM252200 34016G26KT P6SM SCT020 BKN250=



000
FTUS44 KOUN 242322
TAFLAW
TAF
KLAW 242322Z 2500/2524 02006KT P6SM FEW250
     FM250900 09008KT P6SM SCT250
     FM251500 16012KT P6SM SCT250
     FM252200 20015G25KT P6SM SCT020 BKN250 PROB30 2522/2524 4SM
      -TSRA BKN020CB BKN100=



000
FTUS44 KOUN 242322
TAFPNC
TAF
KPNC 242322Z 2500/2524 33010KT P6SM FEW250
     FM250300 VRB03KT P6SM BKN250
     FM251400 16012KT P6SM BKN250
     FM252100 36013KT P6SM SCT020 BKN250 PROB30 2521/2524 4SM -TSRA
      BR BKN020CB BKN100=



000
FTUS44 KOUN 242322
TAFWWR
TAF
KWWR 242322Z 2500/2524 VRB06KT P6SM BKN250
     FM250800 19010KT P6SM BKN250
     FM251900 34016G25KT P6SM BKN250=



000
FTUS44 KOUN 242322
TAFLAW
TAF
KLAW 242322Z 2500/2524 02006KT P6SM FEW250
     FM250900 09008KT P6SM SCT250
     FM251500 16012KT P6SM SCT250
     FM252200 20015G25KT P6SM SCT020 BKN250 PROB30 2522/2524 4SM
      -TSRA BKN020CB BKN100=



000
FTUS44 KOUN 242322
TAFGAG
TAF
KGAG 242322Z 2500/2524 VRB06KT P6SM BKN250
     FM250800 19010KT P6SM BKN250
     FM251900 35016G25KT P6SM BKN250=



000
FTUS44 KOUN 242322
TAFWWR
TAF
KWWR 242322Z 2500/2524 VRB06KT P6SM BKN250
     FM250800 19010KT P6SM BKN250
     FM251900 34016G25KT P6SM BKN250=



000
FTUS44 KOUN 242322
TAFGAG
TAF
KGAG 242322Z 2500/2524 VRB06KT P6SM BKN250
     FM250800 19010KT P6SM BKN250
     FM251900 35016G25KT P6SM BKN250=



000
FTUS44 KOUN 242322
TAFSPS
TAF
KSPS 242322Z 2500/2524 02009KT P6SM FEW250
     FM250900 10009KT P6SM SCT250
     FM251500 18013KT P6SM BKN250
     FM252200 20017G27KT P6SM SCT020 BKN250 PROB30 2522/2524 4SM
      -TSRA BKN020CB BKN100=



000
FTUS44 KOUN 242322
TAFOUN
TAF
KOUN 242322Z 2500/2524 36008KT P6SM SCT250
     FM250600 12007KT P6SM BKN250
     FM251500 14012G18KT P6SM BKN015
     FM251800 18014G22KT P6SM SCT015 BKN250
      TEMPO 2520/2524 2SM -TSRA BKN020CB BKN100=



000
FTUS44 KOUN 242322
TAFHBR
TAF
KHBR 242322Z 2500/2524 03007KT P6SM FEW250
     FM250700 13009KT P6SM SCT250
     FM251400 18013KT P6SM BKN250
     FM252200 34016G26KT P6SM SCT020 BKN250=



000
FTUS44 KOUN 242322
TAFOKC
TAF
KOKC 242322Z 2500/2524 02008KT P6SM SCT250
     FM250700 12007KT P6SM BKN250
     FM251400 14012G18KT P6SM BKN015
     FM251800 18014G22KT P6SM SCT020 BKN250
      TEMPO 2520/2524 2SM -TSRA BKN020CB BKN100=



000
FTUS44 KOUN 242322
TAFPNC
TAF
KPNC 242322Z 2500/2524 33010KT P6SM FEW250
     FM250300 VRB03KT P6SM BKN250
     FM251400 16012KT P6SM BKN250
     FM252100 36013KT P6SM SCT020 BKN250 PROB30 2521/2524 4SM -TSRA
      BR BKN020CB BKN100=



000
FTUS44 KOUN 242322
TAFPNC
TAF
KPNC 242322Z 2500/2524 33010KT P6SM FEW250
     FM250300 VRB03KT P6SM BKN250
     FM251400 16012KT P6SM BKN250
     FM252100 36013KT P6SM SCT020 BKN250 PROB30 2521/2524 4SM -TSRA
      BR BKN020CB BKN100=



000
FTUS44 KOUN 242322
TAFGAG
TAF
KGAG 242322Z 2500/2524 VRB06KT P6SM BKN250
     FM250800 19010KT P6SM BKN250
     FM251900 35016G25KT P6SM BKN250=



000
FTUS44 KOUN 242322
TAFOKC
TAF
KOKC 242322Z 2500/2524 02008KT P6SM SCT250
     FM250700 12007KT P6SM BKN250
     FM251400 14012G18KT P6SM BKN015
     FM251800 18014G22KT P6SM SCT020 BKN250
      TEMPO 2520/2524 2SM -TSRA BKN020CB BKN100=



000
FTUS44 KOUN 242322
TAFWWR
TAF
KWWR 242322Z 2500/2524 VRB06KT P6SM BKN250
     FM250800 19010KT P6SM BKN250
     FM251900 34016G25KT P6SM BKN250=



000
FTUS44 KOUN 242322
TAFHBR
TAF
KHBR 242322Z 2500/2524 03007KT P6SM FEW250
     FM250700 13009KT P6SM SCT250
     FM251400 18013KT P6SM BKN250
     FM252200 34016G26KT P6SM SCT020 BKN250=



000
FTUS44 KOUN 242322
TAFOUN
TAF
KOUN 242322Z 2500/2524 36008KT P6SM SCT250
     FM250600 12007KT P6SM BKN250
     FM251500 14012G18KT P6SM BKN015
     FM251800 18014G22KT P6SM SCT015 BKN250
      TEMPO 2520/2524 2SM -TSRA BKN020CB BKN100=



    US Dept of Commerce
    National Oceanic and Atmospheric Administration
    National Weather Service
    1325 East West Highway
    Silver Spring, MD 20910
    Page Author: NWS Internet Services Team
Disclaimer
Information Quality
Credits
Glossary
Privacy Policy
Freedom of Information Act (FOIA)
About Us
Career Opportunities